Time,TemperatureF,DewpointF,PressureIn,WindDirection,WindDirectionDegrees,WindSpeedMPH,WindSpeedGustMPH,Humidity,HourlyPrecipIn,Conditions,Clouds,dailyrainin,SolarRadiationWatts/m^2,SoftwareType,DateUTC
2013-11-15 00:04:00,39.5,31.9,29.97,SSW,193,4.0,4.0,74,0.00,,,0.00,0,Wunderground v.1.15,2013-11-15 06:04:00,
2013-11-15 00:05:00,39.5,31.9,29.97,SSW,193,4.0,4.0,74,0.00,,,0.00,0,Wunderground v.1.15,2013-11-15 06:05:00,
2013-11-15 00:06:00,39.5,31.9,29.97,SSW,193,3.0,4.0,74,0.00,,,0.00,0,Wunderground v.1.15,2013-11-15 06:06:00,
2013-11-15 00:07:00,39.5,31.9,29.97,SSW,193,1.0,4.0,74,0.00,,,0.00,0,Wunderground v.1.15,2013-11-15 06:07:00,
2013-11-15 00:09:00,39.6,32.0,29.97,SSW,193,3.0,3.0,74,0.00,,,0.00,0,Wunderground v.1.15,2013-11-15 06:09:00,
2013-11-15 00:13:00,39.6,32.0,29.96,SSW,193,2.0,3.0,74,0.00,,,0.00,0,Wunderground v.1.15,2013-11-15 06:13:00,
2013-11-15 00:15:00,39.7,32.1,29.96,SSW,193,5.0,5.0,74,0.00,,,0.00,0,Wunderground v.1.15,2013-11-15 06:15:00,
2013-11-15 00:16:00,39.7,32.1,29.96,SSW,193,2.0,5.0,74,0.00,,,0.00,0,Wunderground v.1.15,2013-11-15 06:16:00,
2013-11-15 00:22:00,39.9,32.3,29.97,SSW,193,3.0,3.0,74,0.00,,,0.00,0,Wunderground v.1.15,2013-11-15 06:22:00,
2013-11-15 00:23:00,40.0,32.4,29.96,SSW,193,1.0,3.0,74,0.00,,,0.00,0,Wunderground v.1.15,2013-11-15 06:23:00,
2013-11-15 00:25:00,40.0,32.4,29.96,SSW,193,3.0,3.0,74,0.00,,,0.00,0,Wunderground v.1.15,2013-11-15 06:25:00,
2013-11-15 00:29:00,40.2,32.6,29.96,South,191,5.0,5.0,74,0.00,,,0.00,0,Wunderground v.1.15,2013-11-15 06:29:00,
2013-11-15 00:30:00,40.4,32.8,29.96,South,191,1.0,3.0,74,0.00,,,0.00,0,Wunderground v.1.15,2013-11-15 06:30:00,
2013-11-15 00:33:00,40.5,32.9,29.96,South,191,3.0,5.0,74,0.00,,,0.00,0,Wunderground v.1.15,2013-11-15 06:33:00,
2013-11-15 00:37:00,40.6,33.0,29.96,South,191,3.0,5.0,74,0.00,,,0.00,0,Wunderground v.1.15,2013-11-15 06:37:00,
2013-11-15 00:38:00,40.6,33.0,29.96,South,191,3.0,5.0,74,0.00,,,0.00,0,Wunderground v.1.15,2013-11-15 06:38:00,
2013-11-15 00:40:00,40.7,33.1,29.96,South,191,3.0,4.0,74,0.00,,,0.00,0,Wunderground v.1.15,2013-11-15 06:40:00,
2013-11-15 00:42:00,40.7,32.7,29.96,South,177,2.0,7.0,73,0.00,,,0.00,0,Wunderground v.1.15,2013-11-15 06:42:00,
2013-11-15 00:43:00,40.8,33.2,29.96,South,177,4.0,7.0,74,0.00,,,0.00,0,Wunderground v.1.15,2013-11-15 06:43:00,
2013-11-15 00:47:00,40.9,33.2,29.96,South,176,2.0,7.0,74,0.00,,,0.00,0,Wunderground v.1.15,2013-11-15 06:47:00,
2013-11-15 00:49:00,40.9,33.2,29.96,South,176,4.0,4.0,74,0.00,,,0.00,0,Wunderground v.1.15,2013-11-15 06:49:00,
2013-11-15 00:52:00,40.9,32.9,29.96,South,181,4.0,4.0,73,0.00,,,0.00,0,Wunderground v.1.15,2013-11-15 06:52:00,
2013-11-15 00:53:00,41.0,33.0,29.96,South,181,5.0,5.0,73,0.00,,,0.00,0,Wunderground v.1.15,2013-11-15 06:53:00,
2013-11-15 00:55:00,41.0,33.0,29.96,South,181,4.0,5.0,73,0.00,,,0.00,0,Wunderground v.1.15,2013-11-15 06:55:00,
2013-11-15 00:58:00,41.0,33.0,29.96,South,180,5.0,6.0,73,0.00,,,0.00,0,Wunderground v.1.15,2013-11-15 06:58:00,
2013-11-15 00:59:00,41.1,33.1,29.96,South,179,5.0,6.0,73,0.00,,,0.00,0,Wunderground v.1.15,2013-11-15 06:59:00,
2013-11-15 01:00:00,41.1,33.1,29.96,South,183,7.0,7.0,73,0.00,,,0.00,0,Wunderground v.1.15,2013-11-15 07:00:00,
2013-11-15 01:01:00,41.1,33.1,29.96,South,180,5.0,7.0,73,0.00,,,0.00,0,Wunderground v.1.15,2013-11-15 07:01:00,
2013-11-15 01:03:00,41.1,33.1,29.96,South,182,4.0,7.0,73,0.00,,,0.00,0,Wunderground v.1.15,2013-11-15 07:03:00,
2013-11-15 01:04:00,41.1,33.1,29.96,South,183,4.0,7.0,73,0.00,,,0.00,0,Wunderground v.1.15,2013-11-15 07:04:00,
2013-11-15 01:06:00,41.1,32.8,29.96,South,184,5.0,7.0,72,0.00,,,0.00,0,Wunderground v.1.15,2013-11-15 07:06:00,
2013-11-15 01:10:00,40.9,32.9,29.96,South,188,4.0,4.0,73,0.00,,,0.00,0,Wunderground v.1.15,2013-11-15 07:10:00,
2013-11-15 01:11:00,40.9,32.9,29.96,South,188,5.0,5.0,73,0.00,,,0.00,0,Wunderground v.1.15,2013-11-15 07:11:00,
2013-11-15 01:13:00,40.7,32.4,29.96,South,188,5.0,5.0,72,0.00,,,0.00,0,Wunderground v.1.15,2013-11-15 07:13:00,
2013-11-15 01:15:00,40.5,32.5,29.96,South,188,4.0,5.0,73,0.00,,,0.00,0,Wunderground v.1.15,2013-11-15 07:15:00,
2013-11-15 01:16:00,40.5,32.5,29.96,South,188,5.0,5.0,73,0.00,,,0.00,0,Wunderground v.1.15,2013-11-15 07:16:00,
2013-11-15 01:17:00,40.4,32.4,29.96,South,188,3.0,5.0,73,0.00,,,0.00,0,Wunderground v.1.15,2013-11-15 07:17:00,
2013-11-15 01:21:00,40.3,32.3,29.96,South,188,3.0,4.0,73,0.00,,,0.00,0,Wunderground v.1.15,2013-11-15 07:21:00,
2013-11-15 01:22:00,40.2,32.2,29.96,South,188,4.0,4.0,73,0.00,,,0.00,0,Wunderground v.1.15,2013-11-15 07:22:00,
2013-11-15 01:23:00,40.2,32.2,29.96,South,188,2.0,4.0,73,0.00,,,0.00,0,Wunderground v.1.15,2013-11-15 07:23:00,
2013-11-15 01:26:00,40.0,32.4,29.96,South,188,2.0,4.0,74,0.00,,,0.00,0,Wunderground v.1.15,2013-11-15 07:26:00,
2013-11-15 01:28:00,40.0,32.4,29.96,South,188,0.0,4.0,74,0.00,,,0.00,0,Wunderground v.1.15,2013-11-15 07:28:00,
2013-11-15 01:30:00,39.9,32.3,29.96,South,188,2.0,2.0,74,0.00,,,0.00,0,Wunderground v.1.15,2013-11-15 07:30:00,
2013-11-15 01:35:00,39.8,32.2,29.96,South,188,0.0,3.0,74,0.00,,,0.00,0,Wunderground v.1.15,2013-11-15 07:35:00,
2013-11-15 01:36:00,39.8,32.2,29.96,South,188,1.0,3.0,74,0.00,,,0.00,0,Wunderground v.1.15,2013-11-15 07:36:00,
2013-11-15 01:38:00,39.7,32.1,29.96,South,188,2.0,3.0,74,0.00,,,0.00,0,Wunderground v.1.15,2013-11-15 07:38:00,
2013-11-15 01:40:00,39.7,32.1,29.96,South,188,2.0,2.0,74,0.00,,,0.00,0,Wunderground v.1.15,2013-11-15 07:40:00,
2013-11-15 01:43:00,39.7,32.1,29.96,SSW,200,4.0,4.0,74,0.00,,,0.00,0,Wunderground v.1.15,2013-11-15 07:43:00,
2013-11-15 01:44:00,39.8,32.5,29.97,SSW,200,2.0,4.0,75,0.00,,,0.00,0,Wunderground v.1.15,2013-11-15 07:44:00,
2013-11-15 01:46:00,39.7,32.4,29.96,SSW,200,2.0,4.0,75,0.00,,,0.00,0,Wunderground v.1.15,2013-11-15 07:46:00,
2013-11-15 01:48:00,39.8,32.5,29.96,SSW,207,6.0,6.0,75,0.00,,,0.00,0,Wunderground v.1.15,2013-11-15 07:48:00,
2013-11-15 01:50:00,39.8,32.5,29.97,SW,217,4.0,4.0,75,0.00,,,0.00,0,Wunderground v.1.15,2013-11-15 07:50:00,
2013-11-15 01:53:00,40.1,32.8,29.97,SW,215,3.0,6.0,75,0.00,,,0.00,0,Wunderground v.1.15,2013-11-15 07:53:00,
2013-11-15 01:54:00,40.1,32.5,29.97,SW,215,3.0,6.0,74,0.00,,,0.00,0,Wunderground v.1.15,2013-11-15 07:54:00,
2013-11-15 01:58:00,40.1,32.5,29.97,SW,215,3.0,6.0,74,0.00,,,0.00,0,Wunderground v.1.15,2013-11-15 07:58:00,
2013-11-15 02:00:00,40.1,32.5,29.97,SW,215,4.0,4.0,74,0.00,,,0.00,0,Wunderground v.1.15,2013-11-15 08:00:00,
2013-11-15 02:01:00,40.1,32.5,29.97,SW,215,2.0,4.0,74,0.00,,,0.00,0,Wunderground v.1.15,2013-11-15 08:01:00,
2013-11-15 02:03:00,40.0,32.4,29.97,SW,215,3.0,6.0,74,0.00,,,0.00,0,Wunderground v.1.15,2013-11-15 08:03:00,
2013-11-15 02:05:00,39.8,32.2,29.97,SW,215,3.0,6.0,74,0.00,,,0.00,0,Wunderground v.1.15,2013-11-15 08:05:00,
2013-11-15 02:06:00,39.8,32.2,29.97,SW,215,3.0,6.0,74,0.00,,,0.00,0,Wunderground v.1.15,2013-11-15 08:06:00,
2013-11-15 02:08:00,39.6,32.0,29.97,SW,215,3.0,6.0,74,0.00,,,0.00,0,Wunderground v.1.15,2013-11-15 08:08:00,
2013-11-15 02:10:00,39.5,32.2,29.97,SW,215,2.0,4.0,75,0.00,,,0.00,0,Wunderground v.1.15,2013-11-15 08:10:00,
2013-11-15 02:11:00,39.4,32.1,29.97,SW,215,2.0,4.0,75,0.00,,,0.00,0,Wunderground v.1.15,2013-11-15 08:11:00,
2013-11-15 02:12:00,39.4,32.1,29.97,SW,215,2.0,4.0,75,0.00,,,0.00,0,Wunderground v.1.15,2013-11-15 08:12:00,
2013-11-15 02:14:00,39.2,31.9,29.97,SW,215,1.0,4.0,75,0.00,,,0.00,0,Wunderground v.1.15,2013-11-15 08:14:00,
2013-11-15 02:15:00,39.2,31.9,29.97,SW,215,3.0,4.0,75,0.00,,,0.00,0,Wunderground v.1.15,2013-11-15 08:15:00,
2013-11-15 02:17:00,39.1,31.8,29.97,SW,215,1.0,4.0,75,0.00,,,0.00,0,Wunderground v.1.15,2013-11-15 08:17:00,
2013-11-15 02:18:00,39.1,31.8,29.97,SW,215,1.0,4.0,75,0.00,,,0.00,0,Wunderground v.1.15,2013-11-15 08:18:00,
2013-11-15 02:19:00,39.1,32.2,29.97,SW,215,0.0,4.0,76,0.00,,,0.00,0,Wunderground v.1.15,2013-11-15 08:19:00,
2013-11-15 02:21:00,39.0,32.1,29.97,SW,215,0.0,2.0,76,0.00,,,0.00,0,Wunderground v.1.15,2013-11-15 08:21:00,
2013-11-15 02:22:00,39.0,32.1,29.97,SW,215,0.0,2.0,76,0.00,,,0.00,0,Wunderground v.1.15,2013-11-15 08:22:00,
2013-11-15 02:23:00,38.9,32.0,29.97,SW,215,0.0,2.0,76,0.00,,,0.00,0,Wunderground v.1.15,2013-11-15 08:23:00,
2013-11-15 02:24:00,38.9,32.0,29.97,SW,215,0.0,2.0,76,0.00,,,0.00,0,Wunderground v.1.15,2013-11-15 08:24:00,
2013-11-15 02:27:00,38.8,31.9,29.97,SW,215,0.0,3.0,76,0.00,,,0.00,0,Wunderground v.1.15,2013-11-15 08:27:00,
2013-11-15 02:28:00,38.7,31.8,29.97,SW,215,0.0,3.0,76,0.00,,,0.00,0,Wunderground v.1.15,2013-11-15 08:28:00,
2013-11-15 02:30:00,38.7,31.8,29.97,SW,215,2.0,2.0,76,0.00,,,0.00,0,Wunderground v.1.15,2013-11-15 08:30:00,
2013-11-15 02:32:00,38.6,32.0,29.97,SW,215,1.0,2.0,77,0.00,,,0.00,0,Wunderground v.1.15,2013-11-15 08:32:00,
2013-11-15 02:33:00,38.6,32.0,29.97,SW,215,1.0,2.0,77,0.00,,,0.00,0,Wunderground v.1.15,2013-11-15 08:33:00,
2013-11-15 02:35:00,38.6,32.0,29.97,SW,215,1.0,3.0,77,0.00,,,0.00,0,Wunderground v.1.15,2013-11-15 08:35:00,
2013-11-15 02:38:00,38.5,31.9,29.97,SW,215,0.0,4.0,77,0.00,,,0.00,0,Wunderground v.1.15,2013-11-15 08:38:00,
2013-11-15 02:40:00,38.6,32.0,29.97,SW,215,0.0,1.0,77,0.00,,,0.00,0,Wunderground v.1.15,2013-11-15 08:40:00,
2013-11-15 02:43:00,38.6,32.0,29.96,SW,215,0.0,1.0,77,0.00,,,0.00,0,Wunderground v.1.15,2013-11-15 08:43:00,
2013-11-15 02:44:00,38.6,32.0,29.96,SW,215,0.0,1.0,77,0.00,,,0.00,0,Wunderground v.1.15,2013-11-15 08:44:00,
2013-11-15 02:45:00,38.6,32.0,29.96,SW,215,0.0,1.0,77,0.00,,,0.00,0,Wunderground v.1.15,2013-11-15 08:45:00,
2013-11-15 02:48:00,38.6,32.0,29.96,SW,215,0.0,3.0,77,0.00,,,0.00,0,Wunderground v.1.15,2013-11-15 08:48:00,
2013-11-15 02:49:00,38.6,32.0,29.96,SW,215,0.0,3.0,77,0.00,,,0.00,0,Wunderground v.1.15,2013-11-15 08:49:00,
2013-11-15 02:50:00,38.6,32.0,29.96,SW,215,0.0,0.0,77,0.00,,,0.00,0,Wunderground v.1.15,2013-11-15 08:50:00,
2013-11-15 02:53:00,38.6,32.0,29.96,SW,215,2.0,3.0,77,0.00,,,0.00,0,Wunderground v.1.15,2013-11-15 08:53:00,
2013-11-15 02:54:00,38.6,32.0,29.96,SW,215,3.0,3.0,77,0.00,,,0.00,0,Wunderground v.1.15,2013-11-15 08:54:00,
2013-11-15 02:56:00,38.5,31.9,29.96,SW,215,4.0,4.0,77,0.00,,,0.00,0,Wunderground v.1.15,2013-11-15 08:56:00,
2013-11-15 02:58:00,38.4,31.5,29.97,SW,215,3.0,5.0,76,0.00,,,0.00,0,Wunderground v.1.15,2013-11-15 08:58:00,
2013-11-15 02:59:00,38.4,31.5,29.97,SW,215,3.0,5.0,76,0.00,,,0.00,0,Wunderground v.1.15,2013-11-15 08:59:00,
2013-11-15 03:00:00,38.3,31.7,29.96,SW,215,5.0,5.0,77,0.00,,,0.00,0,Wunderground v.1.15,2013-11-15 09:00:00,
2013-11-15 03:01:00,38.3,31.7,29.96,SW,215,5.0,5.0,77,0.00,,,0.00,0,Wunderground v.1.15,2013-11-15 09:01:00,
2013-11-15 03:04:00,38.2,31.6,29.96,SW,215,3.0,5.0,77,0.00,,,0.00,0,Wunderground v.1.15,2013-11-15 09:04:00,
2013-11-15 03:05:00,38.1,31.8,29.96,SW,215,4.0,5.0,78,0.00,,,0.00,0,Wunderground v.1.15,2013-11-15 09:05:00,
2013-11-15 03:06:00,38.1,31.5,29.96,SW,215,1.0,5.0,77,0.00,,,0.00,0,Wunderground v.1.15,2013-11-15 09:06:00,
2013-11-15 03:09:00,38.0,31.7,29.96,SW,215,2.0,5.0,78,0.00,,,0.00,0,Wunderground v.1.15,2013-11-15 09:09:00,
2013-11-15 03:10:00,37.9,31.7,29.96,SW,215,1.0,3.0,78,0.00,,,0.00,0,Wunderground v.1.15,2013-11-15 09:10:00,
2013-11-15 03:11:00,37.9,31.7,29.96,SW,215,1.0,3.0,78,0.00,,,0.00,0,Wunderground v.1.15,2013-11-15 09:11:00,
2013-11-15 03:14:00,37.8,31.6,29.96,SW,215,0.0,3.0,78,0.00,,,0.00,0,Wunderground v.1.15,2013-11-15 09:14:00,
2013-11-15 03:15:00,37.7,31.5,29.96,SW,215,0.0,3.0,78,0.00,,,0.00,0,Wunderground v.1.15,2013-11-15 09:15:00,
2013-11-15 03:16:00,37.8,31.6,29.96,SW,215,0.0,3.0,78,0.00,,,0.00,0,Wunderground v.1.15,2013-11-15 09:16:00,
2013-11-15 03:19:00,37.6,31.4,29.96,SW,215,0.0,0.0,78,0.00,,,0.00,0,Wunderground v.1.15,2013-11-15 09:19:00,
2013-11-15 03:20:00,37.5,31.3,29.96,SW,215,0.0,0.0,78,0.00,,,0.00,0,Wunderground v.1.15,2013-11-15 09:20:00,
2013-11-15 03:21:00,37.5,31.3,29.97,SW,215,0.0,0.0,78,0.00,,,0.00,0,Wunderground v.1.15,2013-11-15 09:21:00,
2013-11-15 03:22:00,37.4,31.2,29.97,SW,215,0.0,0.0,78,0.00,,,0.00,0,Wunderground v.1.15,2013-11-15 09:22:00,
2013-11-15 03:24:00,37.3,31.1,29.96,SW,215,0.0,0.0,78,0.00,,,0.00,0,Wunderground v.1.15,2013-11-15 09:24:00,
2013-11-15 03:25:00,37.3,31.1,29.96,SW,215,0.0,0.0,78,0.00,,,0.00,0,Wunderground v.1.15,2013-11-15 09:25:00,
2013-11-15 03:26:00,37.2,31.0,29.96,SW,215,0.0,0.0,78,0.00,,,0.00,0,Wunderground v.1.15,2013-11-15 09:26:00,
2013-11-15 03:27:00,37.1,30.9,29.96,SW,215,0.0,0.0,78,0.00,,,0.00,0,Wunderground v.1.15,2013-11-15 09:27:00,
2013-11-15 03:29:00,37.0,31.1,29.96,SW,215,0.0,0.0,79,0.00,,,0.00,0,Wunderground v.1.15,2013-11-15 09:29:00,
2013-11-15 03:30:00,37.0,31.1,29.96,SW,215,0.0,2.0,79,0.00,,,0.00,0,Wunderground v.1.15,2013-11-15 09:30:00,
2013-11-15 03:31:00,36.9,31.0,29.96,SW,215,0.0,2.0,79,0.00,,,0.00,0,Wunderground v.1.15,2013-11-15 09:31:00,
2013-11-15 03:32:00,36.9,31.3,29.96,SW,215,0.0,2.0,80,0.00,,,0.00,0,Wunderground v.1.15,2013-11-15 09:32:00,
2013-11-15 03:35:00,36.8,31.2,29.97,SW,215,0.0,2.0,80,0.00,,,0.00,0,Wunderground v.1.15,2013-11-15 09:35:00,
2013-11-15 03:36:00,36.8,31.2,29.96,SW,215,0.0,2.0,80,0.00,,,0.00,0,Wunderground v.1.15,2013-11-15 09:36:00,
2013-11-15 03:38:00,36.6,31.0,29.96,SW,215,2.0,3.0,80,0.00,,,0.00,0,Wunderground v.1.15,2013-11-15 09:38:00,
2013-11-15 03:39:00,36.6,31.0,29.97,SW,215,2.0,2.0,80,0.00,,,0.00,0,Wunderground v.1.15,2013-11-15 09:39:00,
2013-11-15 03:41:00,36.5,31.2,29.97,SW,215,3.0,3.0,81,0.00,,,0.00,0,Wunderground v.1.15,2013-11-15 09:41:00,
2013-11-15 03:43:00,36.5,31.2,29.97,SW,215,2.0,3.0,81,0.00,,,0.00,0,Wunderground v.1.15,2013-11-15 09:43:00,
2013-11-15 03:45:00,36.4,31.1,29.97,SW,215,1.0,3.0,81,0.00,,,0.00,0,Wunderground v.1.15,2013-11-15 09:45:00,
2013-11-15 03:46:00,36.4,31.1,29.97,SW,215,1.0,3.0,81,0.00,,,0.00,0,Wunderground v.1.15,2013-11-15 09:46:00,
2013-11-15 03:47:00,36.3,31.0,29.97,SW,215,0.0,3.0,81,0.00,,,0.00,0,Wunderground v.1.15,2013-11-15 09:47:00,
2013-11-15 03:49:00,36.3,31.3,29.96,SW,215,0.0,3.0,82,0.00,,,0.00,0,Wunderground v.1.15,2013-11-15 09:49:00,
2013-11-15 03:50:00,36.2,31.2,29.96,SW,215,0.0,2.0,82,0.00,,,0.00,0,Wunderground v.1.15,2013-11-15 09:50:00,
2013-11-15 03:51:00,36.2,31.2,29.97,SW,215,1.0,2.0,82,0.00,,,0.00,0,Wunderground v.1.15,2013-11-15 09:51:00,
2013-11-15 03:52:00,36.2,31.2,29.97,SW,215,1.0,3.0,82,0.00,,,0.00,0,Wunderground v.1.15,2013-11-15 09:52:00,
2013-11-15 03:54:00,36.1,31.1,29.96,SW,215,0.0,3.0,82,0.00,,,0.00,0,Wunderground v.1.15,2013-11-15 09:54:00,
2013-11-15 03:55:00,36.1,31.1,29.96,SW,215,0.0,3.0,82,0.00,,,0.00,0,Wunderground v.1.15,2013-11-15 09:55:00,
2013-11-15 03:56:00,36.0,31.0,29.96,SW,215,0.0,3.0,82,0.00,,,0.00,0,Wunderground v.1.15,2013-11-15 09:56:00,
2013-11-15 03:58:00,36.0,31.3,29.96,SW,215,0.0,3.0,83,0.00,,,0.00,0,Wunderground v.1.15,2013-11-15 09:58:00,
2013-11-15 04:00:00,36.0,31.3,29.96,SW,215,0.0,1.0,83,0.00,,,0.00,0,Wunderground v.1.15,2013-11-15 10:00:00,
2013-11-15 04:01:00,35.9,31.2,29.96,SW,215,0.0,1.0,83,0.00,,,0.00,0,Wunderground v.1.15,2013-11-15 10:01:00,
2013-11-15 04:02:00,35.9,31.2,29.96,SW,215,0.0,1.0,83,0.00,,,0.00,0,Wunderground v.1.15,2013-11-15 10:02:00,
2013-11-15 04:03:00,35.9,31.2,29.97,SW,215,0.0,1.0,83,0.00,,,0.00,0,Wunderground v.1.15,2013-11-15 10:03:00,
2013-11-15 04:05:00,35.8,31.1,29.97,SW,215,0.0,1.0,83,0.00,,,0.00,0,Wunderground v.1.15,2013-11-15 10:05:00,
2013-11-15 04:06:00,35.8,31.1,29.97,SW,215,0.0,1.0,83,0.00,,,0.00,0,Wunderground v.1.15,2013-11-15 10:06:00,
2013-11-15 04:07:00,35.8,31.1,29.97,SW,215,0.0,1.0,83,0.00,,,0.00,0,Wunderground v.1.15,2013-11-15 10:07:00,
2013-11-15 04:10:00,35.7,31.0,29.97,SW,215,0.0,0.0,83,0.00,,,0.00,0,Wunderground v.1.15,2013-11-15 10:10:00,
2013-11-15 04:11:00,35.6,30.9,29.97,SW,215,1.0,1.0,83,0.00,,,0.00,0,Wunderground v.1.15,2013-11-15 10:11:00,
2013-11-15 04:12:00,35.6,30.9,29.97,SW,215,0.0,1.0,83,0.00,,,0.00,0,Wunderground v.1.15,2013-11-15 10:12:00,
2013-11-15 04:15:00,35.5,31.1,29.97,SW,215,1.0,3.0,84,0.00,,,0.00,0,Wunderground v.1.15,2013-11-15 10:15:00,
2013-11-15 04:16:00,35.6,31.2,29.97,SW,215,0.0,3.0,84,0.00,,,0.00,0,Wunderground v.1.15,2013-11-15 10:16:00,
2013-11-15 04:17:00,35.5,31.1,29.97,SW,215,0.0,3.0,84,0.00,,,0.00,0,Wunderground v.1.15,2013-11-15 10:17:00,
2013-11-15 04:20:00,35.5,31.1,29.97,SW,215,0.0,1.0,84,0.00,,,0.00,0,Wunderground v.1.15,2013-11-15 10:20:00,
2013-11-15 04:21:00,35.5,31.1,29.97,SW,215,0.0,1.0,84,0.00,,,0.00,0,Wunderground v.1.15,2013-11-15 10:21:00,
2013-11-15 04:22:00,35.5,31.1,29.97,SW,215,0.0,1.0,84,0.00,,,0.00,0,Wunderground v.1.15,2013-11-15 10:22:00,
2013-11-15 04:25:00,35.3,30.4,29.97,SW,215,0.0,1.0,82,0.00,,,0.00,0,Wunderground v.1.15,2013-11-15 10:25:00,
2013-11-15 04:26:00,35.2,30.3,29.97,SW,215,0.0,1.0,82,0.00,,,0.00,0,Wunderground v.1.15,2013-11-15 10:26:00,
2013-11-15 04:27:00,35.1,30.2,29.97,SW,215,0.0,1.0,82,0.00,,,0.00,0,Wunderground v.1.15,2013-11-15 10:27:00,
2013-11-15 04:28:00,35.1,30.2,29.97,SW,215,0.0,1.0,82,0.00,,,0.00,0,Wunderground v.1.15,2013-11-15 10:28:00,
2013-11-15 04:31:00,34.7,30.1,29.97,SW,215,0.0,0.0,83,0.00,,,0.00,0,Wunderground v.1.15,2013-11-15 10:31:00,
2013-11-15 04:32:00,34.7,30.1,29.97,SW,215,0.0,0.0,83,0.00,,,0.00,0,Wunderground v.1.15,2013-11-15 10:32:00,
2013-11-15 04:33:00,34.6,30.0,29.97,SW,215,0.0,0.0,83,0.00,,,0.00,0,Wunderground v.1.15,2013-11-15 10:33:00,
2013-11-15 04:37:00,34.5,30.5,29.97,SW,215,0.0,0.0,85,0.00,,,0.00,0,Wunderground v.1.15,2013-11-15 10:37:00,
2013-11-15 04:38:00,34.5,30.5,29.97,SW,215,0.0,0.0,85,0.00,,,0.00,0,Wunderground v.1.15,2013-11-15 10:38:00,
2013-11-15 04:39:00,34.4,30.4,29.97,SW,215,0.0,0.0,85,0.00,,,0.00,0,Wunderground v.1.15,2013-11-15 10:39:00,
2013-11-15 04:42:00,34.4,30.4,29.97,SW,215,0.0,0.0,85,0.00,,,0.00,0,Wunderground v.1.15,2013-11-15 10:42:00,
2013-11-15 04:43:00,34.3,30.3,29.97,SW,215,0.0,0.0,85,0.00,,,0.00,0,Wunderground v.1.15,2013-11-15 10:43:00,
2013-11-15 04:44:00,34.3,30.3,29.97,SW,215,0.0,0.0,85,0.00,,,0.00,0,Wunderground v.1.15,2013-11-15 10:44:00,
2013-11-15 04:47:00,34.2,30.2,29.97,SW,215,0.0,0.0,85,0.00,,,0.00,0,Wunderground v.1.15,2013-11-15 10:47:00,
2013-11-15 04:48:00,34.2,30.2,29.97,SW,215,0.0,0.0,85,0.00,,,0.00,0,Wunderground v.1.15,2013-11-15 10:48:00,
2013-11-15 04:49:00,34.2,30.4,29.97,SW,215,0.0,0.0,86,0.00,,,0.00,0,Wunderground v.1.15,2013-11-15 10:49:00,
2013-11-15 04:50:00,34.1,30.4,29.97,SW,215,0.0,0.0,86,0.00,,,0.00,0,Wunderground v.1.15,2013-11-15 10:50:00,
2013-11-15 04:52:00,34.0,30.0,29.98,SW,215,0.0,0.0,85,0.00,,,0.00,0,Wunderground v.1.15,2013-11-15 10:52:00,
2013-11-15 04:53:00,34.0,30.0,29.98,SW,215,0.0,0.0,85,0.00,,,0.00,0,Wunderground v.1.15,2013-11-15 10:53:00,
2013-11-15 04:54:00,33.9,29.6,29.98,SW,215,0.0,0.0,84,0.00,,,0.00,0,Wunderground v.1.15,2013-11-15 10:54:00,
2013-11-15 04:55:00,33.8,29.8,29.98,SW,215,0.0,0.0,85,0.00,,,0.00,0,Wunderground v.1.15,2013-11-15 10:55:00,
2013-11-15 04:58:00,33.7,30.0,29.98,SW,215,0.0,0.0,86,0.00,,,0.00,0,Wunderground v.1.15,2013-11-15 10:58:00,
2013-11-15 05:00:00,33.6,29.9,29.98,SW,215,0.0,0.0,86,0.00,,,0.00,0,Wunderground v.1.15,2013-11-15 11:00:00,
2013-11-15 05:03:00,33.6,29.9,29.98,SW,215,0.0,0.0,86,0.00,,,0.00,0,Wunderground v.1.15,2013-11-15 11:03:00,
2013-11-15 05:04:00,33.6,29.9,29.98,SW,215,0.0,0.0,86,0.00,,,0.00,0,Wunderground v.1.15,2013-11-15 11:04:00,
2013-11-15 05:05:00,33.5,29.8,29.98,SW,215,0.0,0.0,86,0.00,,,0.00,0,Wunderground v.1.15,2013-11-15 11:05:00,
2013-11-15 05:06:00,33.5,30.0,29.98,SW,215,0.0,0.0,87,0.00,,,0.00,0,Wunderground v.1.15,2013-11-15 11:06:00,
2013-11-15 05:09:00,33.5,30.0,29.97,SW,215,0.0,0.0,87,0.00,,,0.00,0,Wunderground v.1.15,2013-11-15 11:09:00,
2013-11-15 05:11:00,33.6,30.1,29.98,SW,215,0.0,0.0,87,0.00,,,0.00,0,Wunderground v.1.15,2013-11-15 11:11:00,
2013-11-15 05:14:00,33.7,30.2,29.98,SW,215,0.0,0.0,87,0.00,,,0.00,0,Wunderground v.1.15,2013-11-15 11:14:00,
2013-11-15 05:15:00,33.7,30.2,29.98,SW,215,0.0,0.0,87,0.00,,,0.00,0,Wunderground v.1.15,2013-11-15 11:15:00,
2013-11-15 05:16:00,33.7,30.2,29.98,SW,215,0.0,0.0,87,0.00,,,0.00,0,Wunderground v.1.15,2013-11-15 11:16:00,
2013-11-15 05:17:00,33.7,30.0,29.98,SW,215,0.0,0.0,86,0.00,,,0.00,0,Wunderground v.1.15,2013-11-15 11:17:00,
2013-11-15 05:19:00,33.6,29.9,29.98,SW,215,0.0,1.0,86,0.00,,,0.00,0,Wunderground v.1.15,2013-11-15 11:19:00,
2013-11-15 05:20:00,33.5,29.8,29.98,SW,215,0.0,0.0,86,0.00,,,0.00,0,Wunderground v.1.15,2013-11-15 11:20:00,
2013-11-15 05:21:00,33.5,29.8,29.98,SW,215,0.0,0.0,86,0.00,,,0.00,0,Wunderground v.1.15,2013-11-15 11:21:00,
2013-11-15 05:22:00,33.5,29.8,29.98,SW,215,0.0,0.0,86,0.00,,,0.00,0,Wunderground v.1.15,2013-11-15 11:22:00,
2013-11-15 05:24:00,33.4,29.7,29.98,SW,215,0.0,0.0,86,0.00,,,0.00,0,Wunderground v.1.15,2013-11-15 11:24:00,
2013-11-15 05:25:00,33.4,29.7,29.98,SW,215,0.0,0.0,86,0.00,,,0.00,0,Wunderground v.1.15,2013-11-15 11:25:00,
2013-11-15 05:27:00,33.3,29.6,29.98,SW,215,0.0,1.0,86,0.00,,,0.00,0,Wunderground v.1.15,2013-11-15 11:27:00,
2013-11-15 05:29:00,33.1,29.4,29.98,SW,215,0.0,0.0,86,0.00,,,0.00,0,Wunderground v.1.15,2013-11-15 11:29:00,
2013-11-15 05:30:00,33.1,29.4,29.98,SW,215,0.0,0.0,86,0.00,,,0.00,0,Wunderground v.1.15,2013-11-15 11:30:00,
2013-11-15 05:31:00,33.1,29.4,29.98,SW,215,0.0,0.0,86,0.00,,,0.00,0,Wunderground v.1.15,2013-11-15 11:31:00,
2013-11-15 05:32:00,33.0,30.9,29.98,SW,215,0.0,0.0,92,0.00,,,0.00,0,Wunderground v.1.15,2013-11-15 11:32:00,
2013-11-15 05:34:00,33.0,29.6,29.98,SW,215,0.0,0.0,87,0.00,,,0.00,0,Wunderground v.1.15,2013-11-15 11:34:00,
2013-11-15 05:35:00,32.9,29.5,29.98,SW,215,0.0,0.0,87,0.00,,,0.00,0,Wunderground v.1.15,2013-11-15 11:35:00,
2013-11-15 05:36:00,32.9,29.5,29.98,SW,215,0.0,0.0,87,0.00,,,0.00,0,Wunderground v.1.15,2013-11-15 11:36:00,
2013-11-15 05:37:00,32.9,29.5,29.98,SW,215,0.0,0.0,87,0.00,,,0.00,0,Wunderground v.1.15,2013-11-15 11:37:00,
2013-11-15 05:38:00,32.9,29.5,29.98,SW,215,0.0,0.0,87,0.00,,,0.00,0,Wunderground v.1.15,2013-11-15 11:38:00,
2013-11-15 05:40:00,32.9,29.5,29.98,SW,215,0.0,0.0,87,0.00,,,0.00,0,Wunderground v.1.15,2013-11-15 11:40:00,
2013-11-15 05:41:00,32.8,29.4,29.98,SW,215,0.0,0.0,87,0.00,,,0.00,0,Wunderground v.1.15,2013-11-15 11:41:00,
2013-11-15 05:43:00,32.7,29.3,29.98,SW,215,0.0,0.0,87,0.00,,,0.00,0,Wunderground v.1.15,2013-11-15 11:43:00,
2013-11-15 05:45:00,32.7,29.3,29.98,SW,215,0.0,0.0,87,0.00,,,0.00,0,Wunderground v.1.15,2013-11-15 11:45:00,
2013-11-15 05:47:00,32.6,29.2,29.98,SW,215,0.0,0.0,87,0.00,,,0.00,0,Wunderground v.1.15,2013-11-15 11:47:00,
2013-11-15 05:48:00,32.6,29.2,29.98,SW,215,0.0,0.0,87,0.00,,,0.00,0,Wunderground v.1.15,2013-11-15 11:48:00,
2013-11-15 05:49:00,32.6,29.2,29.98,SW,215,0.0,0.0,87,0.00,,,0.00,0,Wunderground v.1.15,2013-11-15 11:49:00,
2013-11-15 05:50:00,32.5,29.1,29.98,SW,215,0.0,0.0,87,0.00,,,0.00,0,Wunderground v.1.15,2013-11-15 11:50:00,
2013-11-15 05:52:00,32.5,29.1,29.98,SW,215,0.0,0.0,87,0.00,,,0.00,0,Wunderground v.1.15,2013-11-15 11:52:00,
2013-11-15 05:53:00,32.4,29.0,29.98,SW,215,0.0,0.0,87,0.00,,,0.00,0,Wunderground v.1.15,2013-11-15 11:53:00,
2013-11-15 05:54:00,32.4,29.0,29.98,SW,215,0.0,0.0,87,0.00,,,0.00,0,Wunderground v.1.15,2013-11-15 11:54:00,
2013-11-15 05:55:00,32.4,29.0,29.98,SW,215,0.0,0.0,87,0.00,,,0.00,0,Wunderground v.1.15,2013-11-15 11:55:00,
2013-11-15 05:56:00,32.4,29.2,29.98,SW,215,0.0,0.0,88,0.00,,,0.00,0,Wunderground v.1.15,2013-11-15 11:56:00,
2013-11-15 05:57:00,32.3,29.1,29.98,SW,215,0.0,0.0,88,0.00,,,0.00,0,Wunderground v.1.15,2013-11-15 11:57:00,
2013-11-15 05:59:00,32.3,29.1,29.98,SW,215,0.0,0.0,88,0.00,,,0.00,0,Wunderground v.1.15,2013-11-15 11:59:00,
2013-11-15 06:00:00,32.3,29.1,29.98,SW,215,0.0,0.0,88,0.00,,,0.00,0,Wunderground v.1.15,2013-11-15 12:00:00,
2013-11-15 06:01:00,32.3,29.1,29.99,SW,215,0.0,0.0,88,0.00,,,0.00,0,Wunderground v.1.15,2013-11-15 12:01:00,
2013-11-15 06:02:00,32.3,29.1,29.98,SW,215,0.0,0.0,88,0.00,,,0.00,0,Wunderground v.1.15,2013-11-15 12:02:00,
2013-11-15 06:05:00,32.2,29.0,29.98,SW,215,0.0,0.0,88,0.00,,,0.00,0,Wunderground v.1.15,2013-11-15 12:05:00,
2013-11-15 06:06:00,32.2,29.0,29.98,SW,215,0.0,0.0,88,0.00,,,0.00,0,Wunderground v.1.15,2013-11-15 12:06:00,
2013-11-15 06:07:00,32.1,28.9,29.98,SW,215,0.0,0.0,88,0.00,,,0.00,0,Wunderground v.1.15,2013-11-15 12:07:00,
2013-11-15 06:10:00,32.1,29.2,29.98,SW,215,0.0,0.0,89,0.00,,,0.00,0,Wunderground v.1.15,2013-11-15 12:10:00,
2013-11-15 06:11:00,32.1,29.2,29.98,SW,215,0.0,0.0,89,0.00,,,0.00,0,Wunderground v.1.15,2013-11-15 12:11:00,
2013-11-15 06:13:00,32.1,29.2,29.99,SW,215,0.0,0.0,89,0.00,,,0.00,0,Wunderground v.1.15,2013-11-15 12:13:00,
2013-11-15 06:15:00,32.2,29.3,29.99,SW,215,0.0,0.0,89,0.00,,,0.00,0,Wunderground v.1.15,2013-11-15 12:15:00,
2013-11-15 06:16:00,32.2,29.3,29.98,SW,215,0.0,0.0,89,0.00,,,0.00,0,Wunderground v.1.15,2013-11-15 12:16:00,
2013-11-15 06:17:00,32.2,29.3,29.98,SW,215,0.0,0.0,89,0.00,,,0.00,0,Wunderground v.1.15,2013-11-15 12:17:00,
2013-11-15 06:20:00,32.3,29.7,29.98,SW,215,0.0,0.0,90,0.00,,,0.00,0,Wunderground v.1.15,2013-11-15 12:20:00,
2013-11-15 06:21:00,32.4,29.8,29.99,SW,215,0.0,0.0,90,0.00,,,0.00,0,Wunderground v.1.15,2013-11-15 12:21:00,
2013-11-15 06:22:00,32.4,29.8,29.99,SW,215,0.0,0.0,90,0.00,,,0.00,0,Wunderground v.1.15,2013-11-15 12:22:00,
2013-11-15 06:25:00,32.5,29.9,29.99,SW,215,0.0,1.0,90,0.00,,,0.00,0,Wunderground v.1.15,2013-11-15 12:25:00,
2013-11-15 06:26:00,32.5,29.9,29.98,SW,215,0.0,1.0,90,0.00,,,0.00,0,Wunderground v.1.15,2013-11-15 12:26:00,
2013-11-15 06:27:00,32.5,29.9,29.98,SW,215,0.0,1.0,90,0.00,,,0.00,0,Wunderground v.1.15,2013-11-15 12:27:00,
2013-11-15 06:28:00,32.6,30.0,29.99,SW,215,0.0,1.0,90,0.00,,,0.00,0,Wunderground v.1.15,2013-11-15 12:28:00,
2013-11-15 06:30:00,32.7,30.1,29.99,SW,215,0.0,0.0,90,0.00,,,0.00,0,Wunderground v.1.15,2013-11-15 12:30:00,
2013-11-15 06:32:00,32.8,29.9,29.99,SW,215,0.0,0.0,89,0.00,,,0.00,0,Wunderground v.1.15,2013-11-15 12:32:00,
2013-11-15 06:33:00,32.8,29.9,29.99,SW,215,0.0,0.0,89,0.00,,,0.00,0,Wunderground v.1.15,2013-11-15 12:33:00,
2013-11-15 06:36:00,32.8,29.9,29.99,SW,215,0.0,0.0,89,0.00,,,0.00,0,Wunderground v.1.15,2013-11-15 12:36:00,
2013-11-15 06:37:00,32.8,29.6,29.99,SW,215,0.0,0.0,88,0.00,,,0.00,0,Wunderground v.1.15,2013-11-15 12:37:00,
2013-11-15 06:38:00,32.8,29.6,29.99,SW,215,0.0,0.0,88,0.00,,,0.00,0,Wunderground v.1.15,2013-11-15 12:38:00,
2013-11-15 06:41:00,32.7,29.8,29.99,SW,215,0.0,0.0,89,0.00,,,0.00,0,Wunderground v.1.15,2013-11-15 12:41:00,
2013-11-15 06:42:00,32.8,29.9,29.99,SW,215,0.0,0.0,89,0.00,,,0.00,0,Wunderground v.1.15,2013-11-15 12:42:00,
2013-11-15 06:43:00,32.8,29.9,29.99,SW,215,0.0,0.0,89,0.00,,,0.00,0,Wunderground v.1.15,2013-11-15 12:43:00,
2013-11-15 06:44:00,32.8,29.9,29.99,SW,215,0.0,0.0,89,0.00,,,0.00,0,Wunderground v.1.15,2013-11-15 12:44:00,
2013-11-15 06:47:00,32.8,29.9,29.99,SW,215,0.0,0.0,89,0.00,,,0.00,0,Wunderground v.1.15,2013-11-15 12:47:00,
2013-11-15 06:48:00,32.8,29.9,29.99,SW,215,0.0,0.0,89,0.00,,,0.00,0,Wunderground v.1.15,2013-11-15 12:48:00,
2013-11-15 06:49:00,32.8,29.9,29.99,SW,215,0.0,0.0,89,0.00,,,0.00,0,Wunderground v.1.15,2013-11-15 12:49:00,
2013-11-15 06:52:00,32.9,30.0,29.99,SW,215,0.0,0.0,89,0.00,,,0.00,0,Wunderground v.1.15,2013-11-15 12:52:00,
2013-11-15 06:53:00,32.9,30.0,29.99,SW,215,0.0,0.0,89,0.00,,,0.00,5,Wunderground v.1.15,2013-11-15 12:53:00,
2013-11-15 06:54:00,32.9,30.0,29.99,SW,215,0.0,0.0,89,0.00,,,0.00,5,Wunderground v.1.15,2013-11-15 12:54:00,
2013-11-15 06:56:00,32.9,29.7,29.99,SW,215,0.0,0.0,88,0.00,,,0.00,5,Wunderground v.1.15,2013-11-15 12:56:00,
2013-11-15 06:57:00,32.9,29.7,29.99,SW,215,0.0,1.0,88,0.00,,,0.00,5,Wunderground v.1.15,2013-11-15 12:57:00,
2013-11-15 06:58:00,32.9,29.7,29.99,SW,215,0.0,1.0,88,0.00,,,0.00,7,Wunderground v.1.15,2013-11-15 12:58:00,
2013-11-15 06:59:00,32.9,29.7,29.99,SW,215,0.0,1.0,88,0.00,,,0.00,7,Wunderground v.1.15,2013-11-15 12:59:00,
2013-11-15 07:01:00,32.8,29.6,29.99,SW,215,0.0,0.0,88,0.00,,,0.00,7,Wunderground v.1.15,2013-11-15 13:01:00,
2013-11-15 07:02:00,32.8,29.6,29.99,SW,215,0.0,0.0,88,0.00,,,0.00,9,Wunderground v.1.15,2013-11-15 13:02:00,
2013-11-15 07:03:00,32.8,29.6,29.99,SW,215,0.0,0.0,88,0.00,,,0.00,9,Wunderground v.1.15,2013-11-15 13:03:00,
2013-11-15 07:04:00,32.8,29.6,29.99,SW,215,0.0,0.0,88,0.00,,,0.00,9,Wunderground v.1.15,2013-11-15 13:04:00,
2013-11-15 07:07:00,32.8,29.6,29.99,SW,215,0.0,1.0,88,0.00,,,0.00,12,Wunderground v.1.15,2013-11-15 13:07:00,
2013-11-15 07:08:00,32.8,29.6,29.99,SW,215,0.0,1.0,88,0.00,,,0.00,12,Wunderground v.1.15,2013-11-15 13:08:00,
2013-11-15 07:10:00,32.8,29.6,29.99,SW,215,0.0,0.0,88,0.00,,,0.00,14,Wunderground v.1.15,2013-11-15 13:10:00,
2013-11-15 07:11:00,32.9,29.7,30.00,SW,215,1.0,2.0,88,0.00,,,0.00,16,Wunderground v.1.15,2013-11-15 13:11:00,
2013-11-15 07:12:00,32.9,29.7,30.00,SSW,209,1.0,3.0,88,0.00,,,0.00,18,Wunderground v.1.15,2013-11-15 13:12:00,
2013-11-15 07:13:00,32.9,29.7,30.00,SSW,209,1.0,3.0,88,0.00,,,0.00,18,Wunderground v.1.15,2013-11-15 13:13:00,
2013-11-15 07:14:00,32.9,29.7,30.00,SSW,209,0.0,3.0,88,0.00,,,0.00,18,Wunderground v.1.15,2013-11-15 13:14:00,
2013-11-15 07:15:00,33.0,29.8,30.00,SSW,209,0.0,3.0,88,0.00,,,0.00,19,Wunderground v.1.15,2013-11-15 13:15:00,
2013-11-15 07:16:00,33.0,29.8,30.00,SSW,209,0.0,3.0,88,0.00,,,0.00,21,Wunderground v.1.15,2013-11-15 13:16:00,
2013-11-15 07:17:00,33.1,29.9,30.00,SSW,209,0.0,3.0,88,0.00,,,0.00,21,Wunderground v.1.15,2013-11-15 13:17:00,
2013-11-15 07:18:00,33.1,29.9,30.00,SSW,209,0.0,3.0,88,0.00,,,0.00,21,Wunderground v.1.15,2013-11-15 13:18:00,
2013-11-15 07:19:00,33.1,29.9,30.00,SSW,209,0.0,3.0,88,0.00,,,0.00,21,Wunderground v.1.15,2013-11-15 13:19:00,
2013-11-15 07:20:00,33.2,30.0,30.00,SSW,209,0.0,0.0,88,0.00,,,0.00,23,Wunderground v.1.15,2013-11-15 13:20:00,
2013-11-15 07:22:00,33.2,30.0,30.00,SSW,209,0.0,1.0,88,0.00,,,0.00,25,Wunderground v.1.15,2013-11-15 13:22:00,
2013-11-15 07:23:00,33.2,29.8,30.00,SSW,209,0.0,1.0,87,0.00,,,0.00,25,Wunderground v.1.15,2013-11-15 13:23:00,
2013-11-15 07:24:00,33.3,30.1,30.00,SSW,209,1.0,1.0,88,0.00,,,0.00,26,Wunderground v.1.15,2013-11-15 13:24:00,
2013-11-15 07:27:00,33.4,30.2,30.00,SSW,209,0.0,1.0,88,0.00,,,0.00,33,Wunderground v.1.15,2013-11-15 13:27:00,
2013-11-15 07:28:00,33.5,30.0,30.00,SSW,209,0.0,1.0,87,0.00,,,0.00,33,Wunderground v.1.15,2013-11-15 13:28:00,
2013-11-15 07:29:00,33.5,30.0,30.00,SSW,209,0.0,1.0,87,0.00,,,0.00,37,Wunderground v.1.15,2013-11-15 13:29:00,
2013-11-15 07:30:00,33.6,30.1,30.00,SSW,209,0.0,0.0,87,0.00,,,0.00,49,Wunderground v.1.15,2013-11-15 13:30:00,
2013-11-15 07:32:00,33.6,30.1,30.00,SSW,209,0.0,1.0,87,0.00,,,0.00,63,Wunderground v.1.15,2013-11-15 13:32:00,
2013-11-15 07:33:00,33.7,30.2,30.00,SSW,209,0.0,2.0,87,0.00,,,0.00,76,Wunderground v.1.15,2013-11-15 13:33:00,
2013-11-15 07:34:00,33.8,30.3,30.00,SSW,209,0.0,2.0,87,0.00,,,0.00,76,Wunderground v.1.15,2013-11-15 13:34:00,
2013-11-15 07:35:00,33.8,30.3,30.00,SSW,209,0.0,2.0,87,0.00,,,0.00,79,Wunderground v.1.15,2013-11-15 13:35:00,
2013-11-15 07:37:00,34.0,30.5,30.00,SSW,209,0.0,2.0,87,0.00,,,0.00,86,Wunderground v.1.15,2013-11-15 13:37:00,
2013-11-15 07:38:00,34.1,30.6,30.00,SSW,209,0.0,2.0,87,0.00,,,0.00,88,Wunderground v.1.15,2013-11-15 13:38:00,
2013-11-15 07:39:00,34.1,30.6,30.00,SSW,209,1.0,2.0,87,0.00,,,0.00,90,Wunderground v.1.15,2013-11-15 13:39:00,
2013-11-15 07:40:00,34.2,30.4,30.00,SSW,209,0.0,0.0,86,0.00,,,0.00,95,Wunderground v.1.15,2013-11-15 13:40:00,
2013-11-15 07:41:00,34.3,30.5,30.00,SSW,209,0.0,1.0,86,0.00,,,0.00,98,Wunderground v.1.15,2013-11-15 13:41:00,
2013-11-15 07:43:00,34.4,30.6,30.00,SSW,209,1.0,1.0,86,0.00,,,0.00,100,Wunderground v.1.15,2013-11-15 13:43:00,
2013-11-15 07:44:00,34.6,30.8,30.00,SSW,209,0.0,2.0,86,0.00,,,0.00,105,Wunderground v.1.15,2013-11-15 13:44:00,
2013-11-15 07:46:00,34.7,30.9,30.00,SSW,209,0.0,2.0,86,0.00,,,0.00,111,Wunderground v.1.15,2013-11-15 13:46:00,
2013-11-15 07:47:00,34.9,31.1,30.01,SSW,209,0.0,2.0,86,0.00,,,0.00,114,Wunderground v.1.15,2013-11-15 13:47:00,
2013-11-15 07:48:00,34.9,31.1,30.01,SSW,209,0.0,2.0,86,0.00,,,0.00,114,Wunderground v.1.15,2013-11-15 13:48:00,
2013-11-15 07:49:00,35.1,31.0,30.00,SSW,209,0.0,2.0,85,0.00,,,0.00,120,Wunderground v.1.15,2013-11-15 13:49:00,
2013-11-15 07:51:00,35.3,31.2,30.01,SSW,209,0.0,0.0,85,0.00,,,0.00,123,Wunderground v.1.15,2013-11-15 13:51:00,
2013-11-15 07:53:00,35.4,31.3,30.01,SSW,209,0.0,0.0,85,0.00,,,0.00,128,Wunderground v.1.15,2013-11-15 13:53:00,
2013-11-15 07:54:00,35.6,31.5,30.01,SSW,209,0.0,1.0,85,0.00,,,0.00,134,Wunderground v.1.15,2013-11-15 13:54:00,
2013-11-15 07:55:00,35.6,31.5,30.01,SSW,209,0.0,1.0,85,0.00,,,0.00,135,Wunderground v.1.15,2013-11-15 13:55:00,
2013-11-15 07:57:00,35.9,31.5,30.01,SSW,209,0.0,1.0,84,0.00,,,0.00,141,Wunderground v.1.15,2013-11-15 13:57:00,
2013-11-15 07:58:00,36.0,31.6,30.01,SSW,209,0.0,1.0,84,0.00,,,0.00,142,Wunderground v.1.15,2013-11-15 13:58:00,
2013-11-15 07:59:00,36.1,31.7,30.01,SSW,209,0.0,1.0,84,0.00,,,0.00,146,Wunderground v.1.15,2013-11-15 13:59:00,
2013-11-15 08:00:00,36.2,31.8,30.01,SSW,209,0.0,1.0,84,0.00,,,0.00,148,Wunderground v.1.15,2013-11-15 14:00:00,
2013-11-15 08:02:00,36.4,31.7,30.01,SSW,209,0.0,1.0,83,0.00,,,0.00,151,Wunderground v.1.15,2013-11-15 14:02:00,
2013-11-15 08:03:00,36.6,31.9,30.01,SSW,209,0.0,1.0,83,0.00,,,0.00,155,Wunderground v.1.15,2013-11-15 14:03:00,
2013-11-15 08:04:00,36.7,32.0,30.01,SSW,209,0.0,1.0,83,0.00,,,0.00,156,Wunderground v.1.15,2013-11-15 14:04:00,
2013-11-15 08:06:00,36.8,31.8,30.01,SSW,209,0.0,1.0,82,0.00,,,0.00,158,Wunderground v.1.15,2013-11-15 14:06:00,
2013-11-15 08:08:00,37.0,32.0,30.01,SSW,209,0.0,2.0,82,0.00,,,0.00,165,Wunderground v.1.15,2013-11-15 14:08:00,
2013-11-15 08:09:00,37.1,32.1,30.01,SSW,209,0.0,2.0,82,0.00,,,0.00,167,Wunderground v.1.15,2013-11-15 14:09:00,
2013-11-15 08:10:00,37.2,32.2,30.01,SSW,209,0.0,0.0,82,0.00,,,0.00,169,Wunderground v.1.15,2013-11-15 14:10:00,
2013-11-15 08:11:00,37.3,32.3,30.01,SSW,209,0.0,2.0,82,0.00,,,0.00,171,Wunderground v.1.15,2013-11-15 14:11:00,
2013-11-15 08:13:00,37.5,32.5,30.01,WNW,290,2.0,4.0,82,0.00,,,0.00,176,Wunderground v.1.15,2013-11-15 14:13:00,
2013-11-15 08:15:00,37.7,32.7,30.01,WNW,289,1.0,5.0,82,0.00,,,0.00,181,Wunderground v.1.15,2013-11-15 14:15:00,
2013-11-15 08:16:00,37.8,32.8,30.01,WNW,289,1.0,5.0,82,0.00,,,0.00,183,Wunderground v.1.15,2013-11-15 14:16:00,
2013-11-15 08:18:00,38.1,32.8,30.01,WNW,289,0.0,5.0,81,0.00,,,0.00,188,Wunderground v.1.15,2013-11-15 14:18:00,
2013-11-15 08:20:00,38.3,33.3,30.01,WNW,289,2.0,2.0,82,0.00,,,0.00,193,Wunderground v.1.15,2013-11-15 14:20:00,
2013-11-15 08:21:00,38.4,33.4,30.01,WNW,288,4.0,4.0,82,0.00,,,0.00,195,Wunderground v.1.15,2013-11-15 14:21:00,
2013-11-15 08:22:00,38.5,33.5,30.01,West,267,1.0,5.0,82,0.00,,,0.00,197,Wunderground v.1.15,2013-11-15 14:22:00,
2013-11-15 08:23:00,38.7,33.4,30.01,WSW,258,1.0,5.0,81,0.00,,,0.00,200,Wunderground v.1.15,2013-11-15 14:23:00,
2013-11-15 08:25:00,38.9,33.6,30.01,SW,229,4.0,6.0,81,0.00,,,0.00,206,Wunderground v.1.15,2013-11-15 14:25:00,
2013-11-15 08:27:00,39.1,33.5,30.01,SSW,193,4.0,7.0,80,0.00,,,0.00,209,Wunderground v.1.15,2013-11-15 14:27:00,
2013-11-15 08:28:00,39.2,33.5,30.01,South,188,4.0,7.0,80,0.00,,,0.00,214,Wunderground v.1.15,2013-11-15 14:28:00,
2013-11-15 08:30:00,39.4,33.7,30.01,SSW,198,2.0,5.0,80,0.00,,,0.00,218,Wunderground v.1.15,2013-11-15 14:30:00,
2013-11-15 08:32:00,39.6,33.9,30.01,SSW,193,7.0,9.0,80,0.00,,,0.00,225,Wunderground v.1.15,2013-11-15 14:32:00,
2013-11-15 08:34:00,39.6,33.6,30.01,South,190,6.0,9.0,79,0.00,,,0.00,227,Wunderground v.1.15,2013-11-15 14:34:00,
2013-11-15 08:35:00,39.7,33.7,30.01,South,190,4.0,9.0,79,0.00,,,0.00,230,Wunderground v.1.15,2013-11-15 14:35:00,
2013-11-15 08:37:00,39.8,33.5,30.01,South,190,5.0,11.0,78,0.00,,,0.00,236,Wunderground v.1.15,2013-11-15 14:37:00,
2013-11-15 08:38:00,39.8,33.5,30.01,South,190,6.0,11.0,78,0.00,,,0.00,237,Wunderground v.1.15,2013-11-15 14:38:00,
2013-11-15 08:39:00,39.9,33.6,30.01,South,190,8.0,11.0,78,0.00,,,0.00,243,Wunderground v.1.15,2013-11-15 14:39:00,
2013-11-15 08:40:00,40.0,33.7,30.01,South,190,5.0,8.0,78,0.00,,,0.00,244,Wunderground v.1.15,2013-11-15 14:40:00,
2013-11-15 08:43:00,40.1,33.8,30.01,South,190,3.0,10.0,78,0.00,,,0.00,251,Wunderground v.1.15,2013-11-15 14:43:00,
2013-11-15 08:44:00,40.1,33.8,30.01,South,190,8.0,10.0,78,0.00,,,0.00,255,Wunderground v.1.15,2013-11-15 14:44:00,
2013-11-15 08:45:00,40.2,33.9,30.01,South,190,8.0,10.0,78,0.00,,,0.00,255,Wunderground v.1.15,2013-11-15 14:45:00,
2013-11-15 08:48:00,40.3,33.7,30.01,South,181,3.0,10.0,77,0.00,,,0.00,264,Wunderground v.1.15,2013-11-15 14:48:00,
2013-11-15 08:49:00,40.3,33.7,30.01,South,185,5.0,10.0,77,0.00,,,0.00,265,Wunderground v.1.15,2013-11-15 14:49:00,
2013-11-15 08:50:00,40.4,33.8,30.01,South,191,7.0,12.0,77,0.00,,,0.00,267,Wunderground v.1.15,2013-11-15 14:50:00,
2013-11-15 08:51:00,40.4,33.4,30.01,South,182,8.0,12.0,76,0.00,,,0.00,272,Wunderground v.1.15,2013-11-15 14:51:00,
2013-11-15 08:53:00,40.5,33.5,30.01,SSW,204,6.0,12.0,76,0.00,,,0.00,276,Wunderground v.1.15,2013-11-15 14:53:00,
2013-11-15 08:54:00,40.6,33.6,30.01,South,184,11.0,12.0,76,0.00,,,0.00,278,Wunderground v.1.15,2013-11-15 14:54:00,
2013-11-15 08:55:00,40.6,33.6,30.01,SSW,211,6.0,12.0,76,0.00,,,0.00,279,Wunderground v.1.15,2013-11-15 14:55:00,
2013-11-15 08:57:00,40.7,33.4,30.01,SSW,200,5.0,12.0,75,0.00,,,0.00,283,Wunderground v.1.15,2013-11-15 14:57:00,
2013-11-15 08:59:00,40.7,33.4,30.01,South,169,7.0,12.0,75,0.00,,,0.00,288,Wunderground v.1.15,2013-11-15 14:59:00,
2013-11-15 09:00:00,40.7,33.4,30.01,SSW,205,8.0,10.0,75,0.00,,,0.00,292,Wunderground v.1.15,2013-11-15 15:00:00,
2013-11-15 09:01:00,40.7,33.4,30.01,SSW,198,7.0,10.0,75,0.00,,,0.00,294,Wunderground v.1.15,2013-11-15 15:01:00,
2013-11-15 09:03:00,40.7,33.1,30.01,SW,225,7.0,10.0,74,0.00,,,0.00,295,Wunderground v.1.15,2013-11-15 15:03:00,
2013-11-15 09:04:00,40.7,33.1,30.01,SSW,208,6.0,10.0,74,0.00,,,0.00,299,Wunderground v.1.15,2013-11-15 15:04:00,
2013-11-15 09:05:00,40.8,33.2,30.01,SSW,206,5.0,10.0,74,0.00,,,0.00,302,Wunderground v.1.15,2013-11-15 15:05:00,
2013-11-15 09:06:00,40.8,33.5,30.01,SSW,208,3.0,10.0,75,0.00,,,0.00,304,Wunderground v.1.15,2013-11-15 15:06:00,
2013-11-15 09:08:00,40.9,33.6,30.01,SSW,202,8.0,10.0,75,0.00,,,0.00,306,Wunderground v.1.15,2013-11-15 15:08:00,
2013-11-15 09:10:00,41.1,33.4,30.01,SSW,198,6.0,7.0,74,0.00,,,0.00,311,Wunderground v.1.15,2013-11-15 15:10:00,
2013-11-15 09:11:00,41.1,33.4,30.01,SSW,196,7.0,8.0,74,0.00,,,0.00,315,Wunderground v.1.15,2013-11-15 15:11:00,
2013-11-15 09:12:00,41.2,33.5,30.01,SSW,205,9.0,9.0,74,0.00,,,0.00,316,Wunderground v.1.15,2013-11-15 15:12:00,
2013-11-15 09:14:00,41.3,33.3,30.01,SW,217,7.0,9.0,73,0.00,,,0.00,322,Wunderground v.1.15,2013-11-15 15:14:00,
2013-11-15 09:15:00,41.3,33.3,30.01,SW,214,8.0,9.0,73,0.00,,,0.00,322,Wunderground v.1.15,2013-11-15 15:15:00,
2013-11-15 09:16:00,41.3,33.3,30.01,SW,214,6.0,9.0,73,0.00,,,0.00,323,Wunderground v.1.15,2013-11-15 15:16:00,
2013-11-15 09:17:00,41.4,33.4,30.01,SW,215,6.0,9.0,73,0.00,,,0.00,325,Wunderground v.1.15,2013-11-15 15:17:00,
2013-11-15 09:20:00,41.5,33.8,30.01,SSW,192,5.0,6.0,74,0.00,,,0.00,332,Wunderground v.1.15,2013-11-15 15:20:00,
2013-11-15 09:21:00,41.6,33.9,30.01,SSW,196,3.0,6.0,74,0.00,,,0.00,334,Wunderground v.1.15,2013-11-15 15:21:00,
2013-11-15 09:22:00,41.7,33.7,30.02,SW,217,4.0,8.0,73,0.00,,,0.00,338,Wunderground v.1.15,2013-11-15 15:22:00,
2013-11-15 09:26:00,42.1,34.4,30.02,WSW,248,7.0,10.0,74,0.00,,,0.00,343,Wunderground v.1.15,2013-11-15 15:26:00,
2013-11-15 09:27:00,42.2,33.8,30.02,SW,232,7.0,10.0,72,0.00,,,0.00,345,Wunderground v.1.15,2013-11-15 15:27:00,
2013-11-15 09:29:00,42.4,33.7,30.02,SW,236,7.0,11.0,71,0.00,,,0.00,350,Wunderground v.1.15,2013-11-15 15:29:00,
2013-11-15 09:31:00,42.5,34.1,30.01,SW,215,7.0,8.0,72,0.00,,,0.00,353,Wunderground v.1.15,2013-11-15 15:31:00,
2013-11-15 09:32:00,42.5,33.8,30.01,SSW,212,5.0,8.0,71,0.00,,,0.00,355,Wunderground v.1.15,2013-11-15 15:32:00,
2013-11-15 09:34:00,42.6,33.9,30.01,SW,217,7.0,8.0,71,0.00,,,0.00,360,Wunderground v.1.15,2013-11-15 15:34:00,
2013-11-15 09:36:00,42.7,33.9,30.01,SW,227,5.0,9.0,71,0.00,,,0.00,366,Wunderground v.1.15,2013-11-15 15:36:00,
2013-11-15 09:37:00,42.7,34.3,30.01,SW,225,4.0,9.0,72,0.00,,,0.00,366,Wunderground v.1.15,2013-11-15 15:37:00,
2013-11-15 09:38:00,42.7,33.9,30.01,SW,225,7.0,9.0,71,0.00,,,0.00,369,Wunderground v.1.15,2013-11-15 15:38:00,
2013-11-15 09:39:00,42.8,34.0,30.01,SW,223,6.0,6.0,71,0.00,,,0.00,371,Wunderground v.1.15,2013-11-15 15:39:00,
2013-11-15 09:42:00,43.0,34.6,30.01,SSW,194,6.0,8.0,72,0.00,,,0.00,376,Wunderground v.1.15,2013-11-15 15:42:00,
2013-11-15 09:43:00,43.2,34.4,30.01,SSW,198,5.0,8.0,71,0.00,,,0.00,373,Wunderground v.1.15,2013-11-15 15:43:00,
2013-11-15 09:45:00,43.3,34.5,30.01,SSE,168,2.0,8.0,71,0.00,,,0.00,383,Wunderground v.1.15,2013-11-15 15:45:00,
2013-11-15 09:47:00,43.6,34.8,30.01,South,177,6.0,8.0,71,0.00,,,0.00,385,Wunderground v.1.15,2013-11-15 15:47:00,
2013-11-15 09:49:00,43.8,34.6,30.01,South,182,3.0,9.0,70,0.00,,,0.00,388,Wunderground v.1.15,2013-11-15 15:49:00,
2013-11-15 09:52:00,44.1,34.9,30.01,South,178,9.0,9.0,70,0.00,,,0.00,394,Wunderground v.1.15,2013-11-15 15:52:00,
2013-11-15 09:53:00,44.1,34.9,30.01,South,185,6.0,9.0,70,0.00,,,0.00,396,Wunderground v.1.15,2013-11-15 15:53:00,
2013-11-15 09:55:00,44.2,34.7,30.01,SSW,196,5.0,10.0,69,0.00,,,0.00,401,Wunderground v.1.15,2013-11-15 15:55:00,
2013-11-15 09:57:00,44.4,35.2,30.01,South,186,5.0,10.0,70,0.00,,,0.00,406,Wunderground v.1.15,2013-11-15 15:57:00,
2013-11-15 09:58:00,44.4,35.2,30.01,SSW,200,7.0,10.0,70,0.00,,,0.00,410,Wunderground v.1.15,2013-11-15 15:58:00,
2013-11-15 10:01:00,44.6,35.4,30.01,South,171,7.0,8.0,70,0.00,,,0.00,424,Wunderground v.1.15,2013-11-15 16:01:00,
2013-11-15 10:03:00,44.6,35.1,30.01,South,187,6.0,8.0,69,0.00,,,0.00,427,Wunderground v.1.15,2013-11-15 16:03:00,
2013-11-15 10:04:00,44.6,35.1,30.01,South,186,11.0,11.0,69,0.00,,,0.00,432,Wunderground v.1.15,2013-11-15 16:04:00,
2013-11-15 10:06:00,44.7,35.1,30.01,South,183,7.0,11.0,69,0.00,,,0.00,441,Wunderground v.1.15,2013-11-15 16:06:00,
2013-11-15 10:08:00,44.8,35.6,30.01,South,184,5.0,11.0,70,0.00,,,0.00,438,Wunderground v.1.15,2013-11-15 16:08:00,
2013-11-15 10:09:00,44.8,35.6,30.01,SSE,165,7.0,11.0,70,0.00,,,0.00,439,Wunderground v.1.15,2013-11-15 16:09:00,
2013-11-15 10:10:00,44.9,35.3,30.02,South,173,7.0,7.0,69,0.00,,,0.00,443,Wunderground v.1.15,2013-11-15 16:10:00,
2013-11-15 10:11:00,44.9,35.3,30.01,South,169,7.0,9.0,69,0.00,,,0.00,445,Wunderground v.1.15,2013-11-15 16:11:00,
2013-11-15 10:13:00,45.0,35.4,30.01,SSW,196,9.0,11.0,69,0.00,,,0.00,445,Wunderground v.1.15,2013-11-15 16:13:00,
2013-11-15 10:14:00,45.0,35.4,30.01,South,189,4.0,11.0,69,0.00,,,0.00,445,Wunderground v.1.15,2013-11-15 16:14:00,
2013-11-15 10:15:00,45.1,35.5,30.01,South,183,8.0,11.0,69,0.00,,,0.00,446,Wunderground v.1.15,2013-11-15 16:15:00,
2013-11-15 10:17:00,45.1,35.5,30.01,South,171,4.0,11.0,69,0.00,,,0.00,446,Wunderground v.1.15,2013-11-15 16:17:00,
2013-11-15 10:18:00,45.1,35.5,30.01,South,178,7.0,11.0,69,0.00,,,0.00,446,Wunderground v.1.15,2013-11-15 16:18:00,
2013-11-15 10:19:00,45.2,35.6,30.01,South,184,10.0,11.0,69,0.00,,,0.00,446,Wunderground v.1.15,2013-11-15 16:19:00,
2013-11-15 10:20:00,45.2,35.3,30.02,South,178,7.0,9.0,68,0.00,,,0.00,445,Wunderground v.1.15,2013-11-15 16:20:00,
2013-11-15 10:21:00,45.2,35.3,30.02,South,188,6.0,9.0,68,0.00,,,0.00,445,Wunderground v.1.15,2013-11-15 16:21:00,
2013-11-15 10:22:00,45.2,35.3,30.01,SSW,199,9.0,10.0,68,0.00,,,0.00,420,Wunderground v.1.15,2013-11-15 16:22:00,
2013-11-15 10:23:00,45.2,35.3,30.02,SSW,196,6.0,10.0,68,0.00,,,0.00,411,Wunderground v.1.15,2013-11-15 16:23:00,
2013-11-15 10:24:00,45.2,35.3,30.01,SW,223,8.0,12.0,68,0.00,,,0.00,436,Wunderground v.1.15,2013-11-15 16:24:00,
2013-11-15 10:25:00,45.2,35.3,30.01,SSW,213,10.0,12.0,68,0.00,,,0.00,406,Wunderground v.1.15,2013-11-15 16:25:00,
2013-11-15 10:26:00,45.3,35.0,30.01,South,186,11.0,12.0,67,0.00,,,0.00,406,Wunderground v.1.15,2013-11-15 16:26:00,
2013-11-15 10:27:00,45.2,34.9,30.01,South,180,5.0,12.0,67,0.00,,,0.00,413,Wunderground v.1.15,2013-11-15 16:27:00,
2013-11-15 10:28:00,45.2,35.3,30.01,SSW,204,10.0,13.0,68,0.00,,,0.00,413,Wunderground v.1.15,2013-11-15 16:28:00,
2013-11-15 10:29:00,45.1,35.2,30.01,SSE,163,8.0,13.0,68,0.00,,,0.00,436,Wunderground v.1.15,2013-11-15 16:29:00,
2013-11-15 10:30:00,45.1,35.2,30.01,SSW,200,7.0,13.0,68,0.00,,,0.00,450,Wunderground v.1.15,2013-11-15 16:30:00,
2013-11-15 10:31:00,45.2,35.6,30.01,South,191,7.0,13.0,69,0.00,,,0.00,417,Wunderground v.1.15,2013-11-15 16:31:00,
2013-11-15 10:32:00,45.2,35.6,30.01,South,176,8.0,13.0,69,0.00,,,0.00,417,Wunderground v.1.15,2013-11-15 16:32:00,
2013-11-15 10:33:00,45.2,35.3,30.01,SW,217,8.0,13.0,68,0.00,,,0.00,367,Wunderground v.1.15,2013-11-15 16:33:00,
2013-11-15 10:34:00,45.2,35.3,30.01,SW,215,9.0,13.0,68,0.00,,,0.00,348,Wunderground v.1.15,2013-11-15 16:34:00,
2013-11-15 10:36:00,45.2,35.3,30.01,SSW,200,5.0,13.0,68,0.00,,,0.00,413,Wunderground v.1.15,2013-11-15 16:36:00,
2013-11-15 10:37:00,45.2,35.6,30.01,SSW,198,3.0,13.0,69,0.00,,,0.00,315,Wunderground v.1.15,2013-11-15 16:37:00,
2013-11-15 10:39:00,45.4,35.8,30.01,SW,219,11.0,13.0,69,0.00,,,0.00,374,Wunderground v.1.15,2013-11-15 16:39:00,
2013-11-15 10:41:00,45.4,35.5,30.02,SSW,211,9.0,10.0,68,0.00,,,0.00,380,Wunderground v.1.15,2013-11-15 16:41:00,
2013-11-15 10:42:00,45.3,35.4,30.02,SSW,213,8.0,10.0,68,0.00,,,0.00,380,Wunderground v.1.15,2013-11-15 16:42:00,
2013-11-15 10:43:00,45.3,35.4,30.01,SSW,203,6.0,10.0,68,0.00,,,0.00,357,Wunderground v.1.15,2013-11-15 16:43:00,
2013-11-15 10:44:00,45.3,35.4,30.01,SSW,197,6.0,10.0,68,0.00,,,0.00,422,Wunderground v.1.15,2013-11-15 16:44:00,
2013-11-15 10:45:00,45.3,35.7,30.01,SSW,213,7.0,10.0,69,0.00,,,0.00,376,Wunderground v.1.15,2013-11-15 16:45:00,
2013-11-15 10:47:00,45.4,35.8,30.01,SSW,196,6.0,10.0,69,0.00,,,0.00,394,Wunderground v.1.15,2013-11-15 16:47:00,
2013-11-15 10:48:00,45.5,35.5,30.01,SSW,195,8.0,10.0,68,0.00,,,0.00,431,Wunderground v.1.15,2013-11-15 16:48:00,
2013-11-15 10:49:00,45.5,35.5,30.01,SSW,202,8.0,10.0,68,0.00,,,0.00,450,Wunderground v.1.15,2013-11-15 16:49:00,
2013-11-15 10:50:00,45.5,35.5,30.01,South,178,10.0,10.0,68,0.00,,,0.00,450,Wunderground v.1.15,2013-11-15 16:50:00,
2013-11-15 10:53:00,45.9,36.3,30.01,SSW,205,6.0,10.0,69,0.00,,,0.00,446,Wunderground v.1.15,2013-11-15 16:53:00,
2013-11-15 10:54:00,46.0,36.4,30.01,SSW,196,7.0,10.0,69,0.00,,,0.00,489,Wunderground v.1.15,2013-11-15 16:54:00,
2013-11-15 10:55:00,46.0,36.4,30.01,SSW,196,7.0,10.0,69,0.00,,,0.00,489,Wunderground v.1.15,2013-11-15 16:55:00,
2013-11-15 10:58:00,46.3,35.9,30.01,SSW,209,10.0,11.0,67,0.00,,,0.00,497,Wunderground v.1.15,2013-11-15 16:58:00,
2013-11-15 10:59:00,46.3,35.9,30.01,SW,222,9.0,11.0,67,0.00,,,0.00,424,Wunderground v.1.15,2013-11-15 16:59:00,
2013-11-15 11:00:00,46.3,35.9,30.01,SW,215,8.0,9.0,67,0.00,,,0.00,350,Wunderground v.1.15,2013-11-15 17:00:00,
2013-11-15 11:03:00,46.3,35.9,30.01,SSW,196,6.0,12.0,67,0.00,,,0.00,244,Wunderground v.1.15,2013-11-15 17:03:00,
2013-11-15 11:04:00,46.3,35.9,30.01,South,183,7.0,12.0,67,0.00,,,0.00,250,Wunderground v.1.15,2013-11-15 17:04:00,
2013-11-15 11:05:00,46.3,35.9,30.01,SSW,197,4.0,12.0,67,0.00,,,0.00,250,Wunderground v.1.15,2013-11-15 17:05:00,
2013-11-15 11:06:00,46.3,35.9,30.01,SSW,194,6.0,12.0,67,0.00,,,0.00,446,Wunderground v.1.15,2013-11-15 17:06:00,
2013-11-15 11:08:00,46.5,36.5,30.01,SSW,192,8.0,12.0,68,0.00,,,0.00,418,Wunderground v.1.15,2013-11-15 17:08:00,
2013-11-15 11:09:00,46.6,36.6,30.01,South,189,6.0,7.0,68,0.00,,,0.00,438,Wunderground v.1.15,2013-11-15 17:09:00,
2013-11-15 11:10:00,46.7,36.7,30.01,SSW,200,6.0,9.0,68,0.00,,,0.00,438,Wunderground v.1.15,2013-11-15 17:10:00,
2013-11-15 11:11:00,46.7,36.7,30.01,SSW,197,3.0,9.0,68,0.00,,,0.00,417,Wunderground v.1.15,2013-11-15 17:11:00,
2013-11-15 11:14:00,46.9,36.9,30.01,South,184,8.0,9.0,68,0.00,,,0.00,485,Wunderground v.1.15,2013-11-15 17:14:00,
2013-11-15 11:15:00,47.2,37.2,30.01,South,179,7.0,10.0,68,0.00,,,0.00,487,Wunderground v.1.15,2013-11-15 17:15:00,
2013-11-15 11:16:00,47.2,37.2,30.01,South,182,7.0,10.0,68,0.00,,,0.00,478,Wunderground v.1.15,2013-11-15 17:16:00,
2013-11-15 11:19:00,47.6,37.2,30.01,SSW,199,6.0,10.0,67,0.00,,,0.00,485,Wunderground v.1.15,2013-11-15 17:19:00,
2013-11-15 11:20:00,47.6,36.8,30.01,SW,214,2.0,11.0,66,0.00,,,0.00,485,Wunderground v.1.15,2013-11-15 17:20:00,
2013-11-15 11:21:00,47.6,36.8,30.01,SW,214,2.0,11.0,66,0.00,,,0.00,485,Wunderground v.1.15,2013-11-15 17:21:00,
2013-11-15 11:22:00,47.7,36.9,30.01,SSW,192,2.0,11.0,66,0.00,,,0.00,483,Wunderground v.1.15,2013-11-15 17:22:00,
2013-11-15 11:24:00,47.9,37.5,30.00,SSW,194,8.0,11.0,67,0.00,,,0.00,489,Wunderground v.1.15,2013-11-15 17:24:00,
2013-11-15 11:26:00,47.9,37.1,30.01,South,189,9.0,12.0,66,0.00,,,0.00,487,Wunderground v.1.15,2013-11-15 17:26:00,
2013-11-15 11:27:00,47.9,37.1,30.01,SSW,196,8.0,12.0,66,0.00,,,0.00,487,Wunderground v.1.15,2013-11-15 17:27:00,
2013-11-15 11:29:00,47.9,36.7,30.00,South,178,9.0,9.0,65,0.00,,,0.00,485,Wunderground v.1.15,2013-11-15 17:29:00,
2013-11-15 11:31:00,48.0,37.2,30.00,South,180,5.0,12.0,66,0.00,,,0.00,485,Wunderground v.1.15,2013-11-15 17:31:00,
2013-11-15 11:32:00,48.2,37.8,30.00,South,179,4.0,12.0,67,0.00,,,0.00,485,Wunderground v.1.15,2013-11-15 17:32:00,
2013-11-15 11:35:00,48.5,37.3,30.00,SSW,213,12.0,12.0,65,0.00,,,0.00,483,Wunderground v.1.15,2013-11-15 17:35:00,
2013-11-15 11:36:00,48.6,37.0,30.00,South,175,6.0,12.0,64,0.00,,,0.00,487,Wunderground v.1.15,2013-11-15 17:36:00,
2013-11-15 11:37:00,48.6,37.4,30.00,SSW,192,6.0,12.0,65,0.00,,,0.00,487,Wunderground v.1.15,2013-11-15 17:37:00,
2013-11-15 11:40:00,48.9,37.3,30.00,SSW,206,6.0,9.0,64,0.00,,,0.00,482,Wunderground v.1.15,2013-11-15 17:40:00,
2013-11-15 11:41:00,49.0,37.7,30.00,SSW,194,6.0,10.0,65,0.00,,,0.00,480,Wunderground v.1.15,2013-11-15 17:41:00,
2013-11-15 11:42:00,49.1,37.8,30.00,South,190,9.0,10.0,65,0.00,,,0.00,478,Wunderground v.1.15,2013-11-15 17:42:00,
2013-11-15 11:45:00,49.2,37.5,30.00,South,182,7.0,10.0,64,0.00,,,0.00,450,Wunderground v.1.15,2013-11-15 17:45:00,
2013-11-15 11:47:00,49.3,37.6,30.00,SW,220,8.0,10.0,64,0.00,,,0.00,457,Wunderground v.1.15,2013-11-15 17:47:00,
2013-11-15 11:48:00,49.4,37.7,30.00,SSW,209,6.0,10.0,64,0.00,,,0.00,448,Wunderground v.1.15,2013-11-15 17:48:00,
2013-11-15 11:51:00,49.5,37.8,30.00,South,179,6.0,9.0,64,0.00,,,0.00,468,Wunderground v.1.15,2013-11-15 17:51:00,
2013-11-15 11:52:00,49.6,38.3,30.00,South,180,5.0,10.0,65,0.00,,,0.00,466,Wunderground v.1.15,2013-11-15 17:52:00,
2013-11-15 11:53:00,49.7,38.4,30.00,South,184,7.0,10.0,65,0.00,,,0.00,455,Wunderground v.1.15,2013-11-15 17:53:00,
2013-11-15 11:57:00,50.0,37.5,30.00,South,178,4.0,10.0,62,0.00,,,0.00,434,Wunderground v.1.15,2013-11-15 17:57:00,
2013-11-15 11:58:00,50.1,38.0,29.99,South,175,8.0,10.0,63,0.00,,,0.00,422,Wunderground v.1.15,2013-11-15 17:58:00,
2013-11-15 12:02:00,50.2,38.1,29.99,SSE,166,8.0,12.0,63,0.00,,,0.00,434,Wunderground v.1.15,2013-11-15 18:02:00,
2013-11-15 12:03:00,50.2,38.1,29.99,SSW,197,6.0,12.0,63,0.00,,,0.00,434,Wunderground v.1.15,2013-11-15 18:03:00,
2013-11-15 12:04:00,50.3,37.8,29.99,SSW,202,6.0,12.0,62,0.00,,,0.00,434,Wunderground v.1.15,2013-11-15 18:04:00,
2013-11-15 12:05:00,50.3,37.8,29.99,SSW,204,10.0,12.0,62,0.00,,,0.00,434,Wunderground v.1.15,2013-11-15 18:05:00,
2013-11-15 12:07:00,50.4,37.9,29.99,SSW,202,8.0,12.0,62,0.00,,,0.00,469,Wunderground v.1.15,2013-11-15 18:07:00,
2013-11-15 12:08:00,50.4,37.9,29.99,SSW,206,9.0,12.0,62,0.00,,,0.00,469,Wunderground v.1.15,2013-11-15 18:08:00,
2013-11-15 12:09:00,50.3,37.4,29.99,SSW,211,5.0,7.0,61,0.00,,,0.00,464,Wunderground v.1.15,2013-11-15 18:09:00,
2013-11-15 12:10:00,50.3,37.8,29.99,SSW,198,4.0,7.0,62,0.00,,,0.00,464,Wunderground v.1.15,2013-11-15 18:10:00,
2013-11-15 12:13:00,50.4,37.9,29.99,South,169,8.0,10.0,62,0.00,,,0.00,454,Wunderground v.1.15,2013-11-15 18:13:00,
2013-11-15 12:14:00,50.5,38.4,29.99,SSW,207,7.0,10.0,63,0.00,,,0.00,455,Wunderground v.1.15,2013-11-15 18:14:00,
2013-11-15 12:15:00,50.5,38.4,29.99,SSW,197,6.0,10.0,63,0.00,,,0.00,455,Wunderground v.1.15,2013-11-15 18:15:00,
2013-11-15 12:18:00,50.8,38.2,29.98,SSE,165,11.0,11.0,62,0.00,,,0.00,473,Wunderground v.1.15,2013-11-15 18:18:00,
2013-11-15 12:19:00,50.8,38.2,29.98,South,190,7.0,12.0,62,0.00,,,0.00,418,Wunderground v.1.15,2013-11-15 18:19:00,
2013-11-15 12:20:00,50.9,38.3,29.98,South,169,9.0,10.0,62,0.00,,,0.00,438,Wunderground v.1.15,2013-11-15 18:20:00,
2013-11-15 12:24:00,51.0,38.0,29.98,SSW,194,7.0,14.0,61,0.00,,,0.00,466,Wunderground v.1.15,2013-11-15 18:24:00,
2013-11-15 12:25:00,51.0,38.0,29.98,South,188,5.0,14.0,61,0.00,,,0.00,455,Wunderground v.1.15,2013-11-15 18:25:00,
2013-11-15 12:29:00,51.3,38.3,29.98,South,180,11.0,14.0,61,0.00,,,0.00,439,Wunderground v.1.15,2013-11-15 18:29:00,
2013-11-15 12:30:00,51.4,38.4,29.98,South,171,10.0,11.0,61,0.00,,,0.00,446,Wunderground v.1.15,2013-11-15 18:30:00,
2013-11-15 12:34:00,51.4,38.4,29.98,SSE,165,10.0,13.0,61,0.00,,,0.00,448,Wunderground v.1.15,2013-11-15 18:34:00,
2013-11-15 12:35:00,51.5,38.1,29.98,South,190,7.0,14.0,60,0.00,,,0.00,439,Wunderground v.1.15,2013-11-15 18:35:00,
2013-11-15 12:36:00,51.5,38.1,29.98,SSW,200,10.0,14.0,60,0.00,,,0.00,439,Wunderground v.1.15,2013-11-15 18:36:00,
2013-11-15 12:40:00,51.5,38.1,29.98,South,188,6.0,9.0,60,0.00,,,0.00,353,Wunderground v.1.15,2013-11-15 18:40:00,
2013-11-15 12:41:00,51.6,38.2,29.98,SSE,164,8.0,12.0,60,0.00,,,0.00,360,Wunderground v.1.15,2013-11-15 18:41:00,
2013-11-15 12:45:00,51.8,38.3,29.98,South,185,10.0,13.0,60,0.00,,,0.00,464,Wunderground v.1.15,2013-11-15 18:45:00,
2013-11-15 12:46:00,51.9,38.4,29.98,South,184,7.0,13.0,60,0.00,,,0.00,457,Wunderground v.1.15,2013-11-15 18:46:00,
2013-11-15 12:50:00,52.1,38.6,29.98,South,189,5.0,9.0,60,0.00,,,0.00,455,Wunderground v.1.15,2013-11-15 18:50:00,
2013-11-15 12:51:00,52.2,38.3,29.98,SW,219,8.0,9.0,59,0.00,,,0.00,388,Wunderground v.1.15,2013-11-15 18:51:00,
2013-11-15 12:52:00,52.3,38.4,29.98,South,179,5.0,12.0,59,0.00,,,0.00,446,Wunderground v.1.15,2013-11-15 18:52:00,
2013-11-15 12:55:00,52.4,38.5,29.97,South,189,6.0,12.0,59,0.00,,,0.00,439,Wunderground v.1.15,2013-11-15 18:55:00,
2013-11-15 12:56:00,52.4,38.5,29.98,South,188,6.0,12.0,59,0.00,,,0.00,434,Wunderground v.1.15,2013-11-15 18:56:00,
2013-11-15 12:57:00,52.5,38.6,29.97,SW,215,8.0,12.0,59,0.00,,,0.00,432,Wunderground v.1.15,2013-11-15 18:57:00,
2013-11-15 12:58:00,52.6,38.2,29.98,South,186,9.0,12.0,58,0.00,,,0.00,431,Wunderground v.1.15,2013-11-15 18:58:00,
2013-11-15 13:00:00,52.6,38.2,29.98,SSE,161,10.0,11.0,58,0.00,,,0.00,427,Wunderground v.1.15,2013-11-15 19:00:00,
2013-11-15 13:01:00,52.6,38.2,29.98,SSW,202,4.0,13.0,58,0.00,,,0.00,431,Wunderground v.1.15,2013-11-15 19:01:00,
2013-11-15 13:02:00,52.7,38.3,29.97,South,190,10.0,13.0,58,0.00,,,0.00,431,Wunderground v.1.15,2013-11-15 19:02:00,
2013-11-15 13:03:00,52.7,38.3,29.97,SSW,197,5.0,13.0,58,0.00,,,0.00,429,Wunderground v.1.15,2013-11-15 19:03:00,
2013-11-15 13:05:00,53.0,38.6,29.97,South,186,10.0,13.0,58,0.00,,,0.00,424,Wunderground v.1.15,2013-11-15 19:05:00,
2013-11-15 13:06:00,53.0,38.2,29.97,South,173,11.0,14.0,57,0.00,,,0.00,417,Wunderground v.1.15,2013-11-15 19:06:00,
2013-11-15 13:08:00,52.9,38.1,29.98,South,189,9.0,14.0,57,0.00,,,0.00,415,Wunderground v.1.15,2013-11-15 19:08:00,
2013-11-15 13:09:00,52.8,37.5,29.97,South,189,10.0,10.0,56,0.00,,,0.00,406,Wunderground v.1.15,2013-11-15 19:09:00,
2013-11-15 13:11:00,52.8,37.5,29.97,South,191,3.0,12.0,56,0.00,,,0.00,417,Wunderground v.1.15,2013-11-15 19:11:00,
2013-11-15 13:12:00,52.8,38.0,29.97,South,180,8.0,12.0,57,0.00,,,0.00,418,Wunderground v.1.15,2013-11-15 19:12:00,
2013-11-15 13:13:00,52.8,38.4,29.97,South,180,7.0,13.0,58,0.00,,,0.00,422,Wunderground v.1.15,2013-11-15 19:13:00,
2013-11-15 13:14:00,52.8,38.4,29.97,South,185,12.0,13.0,58,0.00,,,0.00,418,Wunderground v.1.15,2013-11-15 19:14:00,
2013-11-15 13:16:00,52.9,38.1,29.97,South,188,4.0,13.0,57,0.00,,,0.00,415,Wunderground v.1.15,2013-11-15 19:16:00,
2013-11-15 13:17:00,52.9,38.5,29.97,SSE,167,8.0,13.0,58,0.00,,,0.00,411,Wunderground v.1.15,2013-11-15 19:17:00,
2013-11-15 13:18:00,52.9,38.1,29.97,South,186,8.0,13.0,57,0.00,,,0.00,408,Wunderground v.1.15,2013-11-15 19:18:00,
2013-11-15 13:19:00,52.9,38.1,29.97,South,190,5.0,8.0,57,0.00,,,0.00,399,Wunderground v.1.15,2013-11-15 19:19:00,
2013-11-15 13:21:00,53.0,38.2,29.97,SSE,164,8.0,10.0,57,0.00,,,0.00,399,Wunderground v.1.15,2013-11-15 19:21:00,
2013-11-15 13:22:00,53.0,38.6,29.97,South,191,6.0,10.0,58,0.00,,,0.00,399,Wunderground v.1.15,2013-11-15 19:22:00,
2013-11-15 13:23:00,53.1,38.3,29.97,SSW,212,7.0,10.0,57,0.00,,,0.00,399,Wunderground v.1.15,2013-11-15 19:23:00,
2013-11-15 13:24:00,53.1,38.3,29.97,SSW,201,7.0,10.0,57,0.00,,,0.00,404,Wunderground v.1.15,2013-11-15 19:24:00,
2013-11-15 13:25:00,53.2,37.9,29.97,SSW,193,8.0,12.0,56,0.00,,,0.00,404,Wunderground v.1.15,2013-11-15 19:25:00,
2013-11-15 13:26:00,53.2,37.9,29.97,South,173,10.0,13.0,56,0.00,,,0.00,403,Wunderground v.1.15,2013-11-15 19:26:00,
2013-11-15 13:27:00,53.1,37.8,29.97,South,173,10.0,13.0,56,0.00,,,0.00,401,Wunderground v.1.15,2013-11-15 19:27:00,
2013-11-15 13:29:00,53.1,37.8,29.97,SSW,205,9.0,13.0,56,0.00,,,0.00,404,Wunderground v.1.15,2013-11-15 19:29:00,
2013-11-15 13:30:00,53.1,37.8,29.97,SSW,198,7.0,9.0,56,0.00,,,0.00,394,Wunderground v.1.15,2013-11-15 19:30:00,
2013-11-15 13:32:00,53.1,37.8,29.98,SSE,164,9.0,13.0,56,0.00,,,0.00,380,Wunderground v.1.15,2013-11-15 19:32:00,
2013-11-15 13:34:00,53.1,38.3,29.98,SW,228,7.0,13.0,57,0.00,,,0.00,367,Wunderground v.1.15,2013-11-15 19:34:00,
2013-11-15 13:35:00,53.1,37.8,29.98,SW,215,9.0,13.0,56,0.00,,,0.00,367,Wunderground v.1.15,2013-11-15 19:35:00,
2013-11-15 13:37:00,53.0,37.7,29.98,SSW,207,10.0,13.0,56,0.00,,,0.00,373,Wunderground v.1.15,2013-11-15 19:37:00,
2013-11-15 13:38:00,53.0,37.7,29.97,SSW,213,7.0,13.0,56,0.00,,,0.00,367,Wunderground v.1.15,2013-11-15 19:38:00,
2013-11-15 13:40:00,53.0,37.7,29.97,SW,225,5.0,8.0,56,0.00,,,0.00,352,Wunderground v.1.15,2013-11-15 19:40:00,
2013-11-15 13:42:00,53.0,37.7,29.97,South,180,3.0,10.0,56,0.00,,,0.00,362,Wunderground v.1.15,2013-11-15 19:42:00,
2013-11-15 13:43:00,53.0,38.2,29.97,SSE,159,7.0,10.0,57,0.00,,,0.00,362,Wunderground v.1.15,2013-11-15 19:43:00,
2013-11-15 13:45:00,53.1,38.3,29.97,South,190,7.0,10.0,57,0.00,,,0.00,360,Wunderground v.1.15,2013-11-15 19:45:00,
2013-11-15 13:46:00,53.2,38.4,29.97,South,182,7.0,10.0,57,0.00,,,0.00,362,Wunderground v.1.15,2013-11-15 19:46:00,
2013-11-15 13:47:00,53.2,38.4,29.97,SSW,204,8.0,11.0,57,0.00,,,0.00,367,Wunderground v.1.15,2013-11-15 19:47:00,
2013-11-15 13:48:00,53.3,38.0,29.97,SSW,213,8.0,11.0,56,0.00,,,0.00,353,Wunderground v.1.15,2013-11-15 19:48:00,
2013-11-15 13:50:00,53.3,38.4,29.97,SW,214,5.0,8.0,57,0.00,,,0.00,346,Wunderground v.1.15,2013-11-15 19:50:00,
2013-11-15 13:52:00,53.2,38.4,29.97,South,190,7.0,9.0,57,0.00,,,0.00,345,Wunderground v.1.15,2013-11-15 19:52:00,
2013-11-15 13:53:00,53.2,37.9,29.97,SSW,206,7.0,9.0,56,0.00,,,0.00,336,Wunderground v.1.15,2013-11-15 19:53:00,
2013-11-15 13:55:00,53.2,38.4,29.96,South,179,5.0,11.0,57,0.00,,,0.00,336,Wunderground v.1.15,2013-11-15 19:55:00,
2013-11-15 13:57:00,53.2,38.4,29.97,South,169,8.0,11.0,57,0.00,,,0.00,343,Wunderground v.1.15,2013-11-15 19:57:00,
2013-11-15 13:58:00,53.3,38.4,29.96,South,174,6.0,11.0,57,0.00,,,0.00,332,Wunderground v.1.15,2013-11-15 19:58:00,
2013-11-15 13:59:00,53.3,38.4,29.96,South,182,6.0,11.0,57,0.00,,,0.00,332,Wunderground v.1.15,2013-11-15 19:59:00,
2013-11-15 14:01:00,53.4,38.5,29.96,South,180,5.0,10.0,57,0.00,,,0.00,336,Wunderground v.1.15,2013-11-15 20:01:00,
2013-11-15 14:02:00,53.4,38.5,29.96,South,181,5.0,10.0,57,0.00,,,0.00,323,Wunderground v.1.15,2013-11-15 20:02:00,
2013-11-15 14:03:00,53.4,38.5,29.96,SSE,159,8.0,10.0,57,0.00,,,0.00,315,Wunderground v.1.15,2013-11-15 20:03:00,
2013-11-15 14:04:00,53.5,38.2,29.96,SSE,159,6.0,10.0,56,0.00,,,0.00,318,Wunderground v.1.15,2013-11-15 20:04:00,
2013-11-15 14:06:00,53.4,38.1,29.96,SSW,194,8.0,10.0,56,0.00,,,0.00,323,Wunderground v.1.15,2013-11-15 20:06:00,
2013-11-15 14:07:00,53.5,38.2,29.96,South,179,6.0,10.0,56,0.00,,,0.00,327,Wunderground v.1.15,2013-11-15 20:07:00,
2013-11-15 14:08:00,53.5,38.2,29.96,SSW,210,7.0,10.0,56,0.00,,,0.00,327,Wunderground v.1.15,2013-11-15 20:08:00,
2013-11-15 14:09:00,53.5,38.2,29.96,SW,215,9.0,9.0,56,0.00,,,0.00,325,Wunderground v.1.15,2013-11-15 20:09:00,
2013-11-15 14:10:00,53.5,38.2,29.96,SSW,212,8.0,10.0,56,0.00,,,0.00,325,Wunderground v.1.15,2013-11-15 20:10:00,
2013-11-15 14:12:00,53.4,38.1,29.96,SSW,213,5.0,10.0,56,0.00,,,0.00,318,Wunderground v.1.15,2013-11-15 20:12:00,
2013-11-15 14:13:00,53.4,38.1,29.96,SW,221,8.0,10.0,56,0.00,,,0.00,318,Wunderground v.1.15,2013-11-15 20:13:00,
2013-11-15 14:14:00,53.4,38.1,29.96,SW,217,8.0,10.0,56,0.00,,,0.00,313,Wunderground v.1.15,2013-11-15 20:14:00,
2013-11-15 14:15:00,53.4,38.1,29.96,SSW,213,5.0,10.0,56,0.00,,,0.00,311,Wunderground v.1.15,2013-11-15 20:15:00,
2013-11-15 14:18:00,53.5,38.2,29.96,South,185,8.0,10.0,56,0.00,,,0.00,306,Wunderground v.1.15,2013-11-15 20:18:00,
2013-11-15 14:20:00,53.5,38.2,29.96,SSW,202,9.0,10.0,56,0.00,,,0.00,301,Wunderground v.1.15,2013-11-15 20:20:00,
2013-11-15 14:23:00,53.5,38.2,29.96,South,180,5.0,11.0,56,0.00,,,0.00,294,Wunderground v.1.15,2013-11-15 20:23:00,
2013-11-15 14:24:00,53.6,38.3,29.96,South,182,6.0,11.0,56,0.00,,,0.00,292,Wunderground v.1.15,2013-11-15 20:24:00,
2013-11-15 14:25:00,53.6,37.8,29.97,SSW,200,7.0,11.0,55,0.00,,,0.00,287,Wunderground v.1.15,2013-11-15 20:25:00,
2013-11-15 14:26:00,53.6,38.3,29.97,South,186,3.0,11.0,56,0.00,,,0.00,285,Wunderground v.1.15,2013-11-15 20:26:00,
2013-11-15 14:28:00,53.6,38.7,29.97,South,188,7.0,11.0,57,0.00,,,0.00,279,Wunderground v.1.15,2013-11-15 20:28:00,
2013-11-15 14:31:00,53.7,37.9,29.97,SSW,198,7.0,9.0,55,0.00,,,0.00,274,Wunderground v.1.15,2013-11-15 20:31:00,
2013-11-15 14:33:00,53.7,37.9,29.97,South,180,7.0,11.0,55,0.00,,,0.00,269,Wunderground v.1.15,2013-11-15 20:33:00,
2013-11-15 14:36:00,53.7,37.9,29.97,SSW,203,6.0,11.0,55,0.00,,,0.00,264,Wunderground v.1.15,2013-11-15 20:36:00,
2013-11-15 14:38:00,53.8,38.5,29.97,SSW,198,5.0,11.0,56,0.00,,,0.00,258,Wunderground v.1.15,2013-11-15 20:38:00,
2013-11-15 14:39:00,53.8,38.5,29.97,SSW,198,3.0,11.0,56,0.00,,,0.00,257,Wunderground v.1.15,2013-11-15 20:39:00,
2013-11-15 14:41:00,53.9,38.1,29.96,SSW,211,6.0,8.0,55,0.00,,,0.00,253,Wunderground v.1.15,2013-11-15 20:41:00,
2013-11-15 14:42:00,54.0,38.2,29.96,SW,214,8.0,11.0,55,0.00,,,0.00,251,Wunderground v.1.15,2013-11-15 20:42:00,
2013-11-15 14:44:00,53.9,37.6,29.96,South,182,5.0,12.0,54,0.00,,,0.00,248,Wunderground v.1.15,2013-11-15 20:44:00,
2013-11-15 14:45:00,53.9,37.6,29.96,SSW,197,5.0,12.0,54,0.00,,,0.00,244,Wunderground v.1.15,2013-11-15 20:45:00,
2013-11-15 14:46:00,53.8,38.0,29.96,SSW,193,10.0,12.0,55,0.00,,,0.00,243,Wunderground v.1.15,2013-11-15 20:46:00,
2013-11-15 14:47:00,53.8,38.0,29.96,South,183,5.0,12.0,55,0.00,,,0.00,241,Wunderground v.1.15,2013-11-15 20:47:00,
2013-11-15 14:49:00,53.8,38.0,29.96,SSW,211,7.0,12.0,55,0.00,,,0.00,234,Wunderground v.1.15,2013-11-15 20:49:00,
2013-11-15 14:50:00,53.7,37.9,29.96,South,180,5.0,9.0,55,0.00,,,0.00,234,Wunderground v.1.15,2013-11-15 20:50:00,
2013-11-15 14:51:00,53.8,38.0,29.96,SSW,211,9.0,9.0,55,0.00,,,0.00,229,Wunderground v.1.15,2013-11-15 20:51:00,
2013-11-15 14:52:00,53.8,38.0,29.96,SW,227,7.0,11.0,55,0.00,,,0.00,229,Wunderground v.1.15,2013-11-15 20:52:00,
2013-11-15 14:53:00,53.8,38.0,29.96,SSW,206,9.0,11.0,55,0.00,,,0.00,214,Wunderground v.1.15,2013-11-15 20:53:00,
2013-11-15 14:54:00,53.8,38.0,29.96,SSW,204,6.0,11.0,55,0.00,,,0.00,220,Wunderground v.1.15,2013-11-15 20:54:00,
2013-11-15 14:55:00,53.8,38.0,29.96,SSW,204,8.0,11.0,55,0.00,,,0.00,220,Wunderground v.1.15,2013-11-15 20:55:00,
2013-11-15 14:56:00,53.8,38.0,29.96,SSW,194,6.0,11.0,55,0.00,,,0.00,214,Wunderground v.1.15,2013-11-15 20:56:00,
2013-11-15 14:57:00,53.8,38.0,29.96,SSW,203,8.0,11.0,55,0.00,,,0.00,213,Wunderground v.1.15,2013-11-15 20:57:00,
2013-11-15 14:58:00,53.8,38.0,29.96,SSW,204,7.0,11.0,55,0.00,,,0.00,211,Wunderground v.1.15,2013-11-15 20:58:00,
2013-11-15 15:00:00,53.8,38.0,29.96,South,187,5.0,8.0,55,0.00,,,0.00,204,Wunderground v.1.15,2013-11-15 21:00:00,
2013-11-15 15:01:00,53.8,38.0,29.96,SW,215,5.0,10.0,55,0.00,,,0.00,200,Wunderground v.1.15,2013-11-15 21:01:00,
2013-11-15 15:02:00,53.7,37.9,29.96,SSE,158,9.0,10.0,55,0.00,,,0.00,200,Wunderground v.1.15,2013-11-15 21:02:00,
2013-11-15 15:03:00,53.7,38.4,29.96,SSW,192,9.0,12.0,56,0.00,,,0.00,199,Wunderground v.1.15,2013-11-15 21:03:00,
2013-11-15 15:05:00,53.7,37.9,29.96,SSW,192,9.0,12.0,55,0.00,,,0.00,195,Wunderground v.1.15,2013-11-15 21:05:00,
2013-11-15 15:06:00,53.7,37.9,29.96,SSW,198,5.0,12.0,55,0.00,,,0.00,188,Wunderground v.1.15,2013-11-15 21:06:00,
2013-11-15 15:07:00,53.7,37.9,29.96,SSW,193,8.0,12.0,55,0.00,,,0.00,186,Wunderground v.1.15,2013-11-15 21:07:00,
2013-11-15 15:08:00,53.7,38.4,29.96,South,184,7.0,12.0,56,0.00,,,0.00,183,Wunderground v.1.15,2013-11-15 21:08:00,
2013-11-15 15:09:00,53.7,37.9,29.95,SSW,192,3.0,7.0,55,0.00,,,0.00,178,Wunderground v.1.15,2013-11-15 21:09:00,
2013-11-15 15:10:00,53.7,38.4,29.95,SSW,193,7.0,9.0,56,0.00,,,0.00,178,Wunderground v.1.15,2013-11-15 21:10:00,
2013-11-15 15:11:00,53.7,37.9,29.95,South,189,4.0,9.0,55,0.00,,,0.00,176,Wunderground v.1.15,2013-11-15 21:11:00,
2013-11-15 15:12:00,53.7,38.4,29.95,South,179,4.0,9.0,56,0.00,,,0.00,169,Wunderground v.1.15,2013-11-15 21:12:00,
2013-11-15 15:13:00,53.7,38.4,29.95,South,178,6.0,9.0,56,0.00,,,0.00,169,Wunderground v.1.15,2013-11-15 21:13:00,
2013-11-15 15:15:00,53.7,38.4,29.95,SSW,201,7.0,9.0,56,0.00,,,0.00,162,Wunderground v.1.15,2013-11-15 21:15:00,
2013-11-15 15:17:00,53.8,38.5,29.95,SSW,198,5.0,9.0,56,0.00,,,0.00,155,Wunderground v.1.15,2013-11-15 21:17:00,
2013-11-15 15:18:00,53.8,38.5,29.95,SSW,195,1.0,9.0,56,0.00,,,0.00,155,Wunderground v.1.15,2013-11-15 21:18:00,
2013-11-15 15:21:00,53.8,38.5,29.95,South,183,8.0,10.0,56,0.00,,,0.00,144,Wunderground v.1.15,2013-11-15 21:21:00,
2013-11-15 15:22:00,53.8,38.5,29.95,SSW,192,7.0,10.0,56,0.00,,,0.00,142,Wunderground v.1.15,2013-11-15 21:22:00,
2013-11-15 15:23:00,53.8,38.5,29.95,SSW,200,6.0,10.0,56,0.00,,,0.00,141,Wunderground v.1.15,2013-11-15 21:23:00,
2013-11-15 15:24:00,53.8,38.5,29.95,SSW,204,4.0,10.0,56,0.00,,,0.00,130,Wunderground v.1.15,2013-11-15 21:24:00,
2013-11-15 15:26:00,53.8,38.5,29.95,SSW,194,5.0,10.0,56,0.00,,,0.00,114,Wunderground v.1.15,2013-11-15 21:26:00,
2013-11-15 15:28:00,53.7,38.8,29.96,South,178,8.0,10.0,57,0.00,,,0.00,90,Wunderground v.1.15,2013-11-15 21:28:00,
2013-11-15 15:29:00,53.7,38.8,29.96,South,184,4.0,10.0,57,0.00,,,0.00,77,Wunderground v.1.15,2013-11-15 21:29:00,
2013-11-15 15:31:00,53.5,38.6,29.96,South,185,6.0,7.0,57,0.00,,,0.00,56,Wunderground v.1.15,2013-11-15 21:31:00,
2013-11-15 15:33:00,53.3,38.4,29.96,South,188,5.0,7.0,57,0.00,,,0.00,56,Wunderground v.1.15,2013-11-15 21:33:00,
2013-11-15 15:34:00,53.2,38.4,29.96,South,185,4.0,7.0,57,0.00,,,0.00,51,Wunderground v.1.15,2013-11-15 21:34:00,
2013-11-15 15:37:00,52.8,38.4,29.96,South,190,3.0,8.0,58,0.00,,,0.00,44,Wunderground v.1.15,2013-11-15 21:37:00,
2013-11-15 15:38:00,52.7,38.8,29.96,South,190,5.0,8.0,59,0.00,,,0.00,39,Wunderground v.1.15,2013-11-15 21:38:00,
2013-11-15 15:39:00,52.5,38.6,29.96,SSW,194,7.0,8.0,59,0.00,,,0.00,37,Wunderground v.1.15,2013-11-15 21:39:00,
2013-11-15 15:42:00,52.2,38.3,29.96,SSW,192,5.0,6.0,59,0.00,,,0.00,33,Wunderground v.1.15,2013-11-15 21:42:00,
2013-11-15 15:43:00,52.1,38.6,29.96,SSW,204,5.0,7.0,60,0.00,,,0.00,33,Wunderground v.1.15,2013-11-15 21:43:00,
2013-11-15 15:44:00,52.0,38.5,29.96,SSW,196,4.0,7.0,60,0.00,,,0.00,33,Wunderground v.1.15,2013-11-15 21:44:00,
2013-11-15 15:45:00,51.9,38.4,29.96,SSW,195,4.0,7.0,60,0.00,,,0.00,33,Wunderground v.1.15,2013-11-15 21:45:00,
2013-11-15 15:47:00,51.8,38.8,29.96,SSW,198,3.0,10.0,61,0.00,,,0.00,35,Wunderground v.1.15,2013-11-15 21:47:00,
2013-11-15 15:48:00,51.7,38.7,29.96,SSW,195,6.0,10.0,61,0.00,,,0.00,40,Wunderground v.1.15,2013-11-15 21:48:00,
2013-11-15 15:49:00,51.7,38.7,29.96,SSW,194,3.0,10.0,61,0.00,,,0.00,46,Wunderground v.1.15,2013-11-15 21:49:00,
2013-11-15 15:50:00,51.6,38.6,29.96,SSW,193,4.0,7.0,61,0.00,,,0.00,51,Wunderground v.1.15,2013-11-15 21:50:00,
2013-11-15 15:52:00,51.6,38.6,29.96,SSW,198,3.0,8.0,61,0.00,,,0.00,54,Wunderground v.1.15,2013-11-15 21:52:00,
2013-11-15 15:53:00,51.6,39.0,29.96,SSW,198,3.0,8.0,62,0.00,,,0.00,54,Wunderground v.1.15,2013-11-15 21:53:00,
2013-11-15 15:54:00,51.5,38.9,29.96,South,191,2.0,8.0,62,0.00,,,0.00,56,Wunderground v.1.15,2013-11-15 21:54:00,
2013-11-15 15:55:00,51.5,38.9,29.96,South,190,3.0,8.0,62,0.00,,,0.00,56,Wunderground v.1.15,2013-11-15 21:55:00,
2013-11-15 15:56:00,51.5,38.9,29.96,South,189,4.0,8.0,62,0.00,,,0.00,53,Wunderground v.1.15,2013-11-15 21:56:00,
2013-11-15 15:57:00,51.5,38.9,29.96,South,190,6.0,8.0,62,0.00,,,0.00,47,Wunderground v.1.15,2013-11-15 21:57:00,
2013-11-15 15:58:00,51.5,38.9,29.96,SSW,195,5.0,8.0,62,0.00,,,0.00,33,Wunderground v.1.15,2013-11-15 21:58:00,
2013-11-15 16:00:00,51.5,38.9,29.96,SSW,197,4.0,5.0,62,0.00,,,0.00,32,Wunderground v.1.15,2013-11-15 22:00:00,
2013-11-15 16:02:00,51.4,38.8,29.96,SSW,201,5.0,6.0,62,0.00,,,0.00,26,Wunderground v.1.15,2013-11-15 22:02:00,
2013-11-15 16:03:00,51.4,38.8,29.96,SSW,200,5.0,6.0,62,0.00,,,0.00,25,Wunderground v.1.15,2013-11-15 22:03:00,
2013-11-15 16:05:00,51.3,38.7,29.96,SSW,201,4.0,7.0,62,0.00,,,0.00,25,Wunderground v.1.15,2013-11-15 22:05:00,
2013-11-15 16:06:00,51.2,39.0,29.96,SSW,200,3.0,7.0,63,0.00,,,0.00,23,Wunderground v.1.15,2013-11-15 22:06:00,
2013-11-15 16:07:00,51.2,38.6,29.96,SSW,200,3.0,7.0,62,0.00,,,0.00,23,Wunderground v.1.15,2013-11-15 22:07:00,
2013-11-15 16:09:00,51.2,39.0,29.96,SSW,200,2.0,7.0,63,0.00,,,0.00,23,Wunderground v.1.15,2013-11-15 22:09:00,
2013-11-15 16:11:00,51.0,38.8,29.96,SSW,200,5.0,5.0,63,0.00,,,0.00,18,Wunderground v.1.15,2013-11-15 22:11:00,
2013-11-15 16:12:00,51.0,38.8,29.96,SSW,200,3.0,5.0,63,0.00,,,0.00,18,Wunderground v.1.15,2013-11-15 22:12:00,
2013-11-15 16:13:00,51.0,38.8,29.96,SSW,200,0.0,5.0,63,0.00,,,0.00,16,Wunderground v.1.15,2013-11-15 22:13:00,
2013-11-15 16:14:00,50.9,38.7,29.96,SSW,200,7.0,7.0,63,0.00,,,0.00,16,Wunderground v.1.15,2013-11-15 22:14:00,
2013-11-15 16:16:00,50.8,38.7,29.96,SSW,200,2.0,7.0,63,0.00,,,0.00,12,Wunderground v.1.15,2013-11-15 22:16:00,
2013-11-15 16:17:00,50.7,38.6,29.96,SSW,200,2.0,7.0,63,0.00,,,0.00,12,Wunderground v.1.15,2013-11-15 22:17:00,
2013-11-15 16:18:00,50.7,39.0,29.96,SSW,200,0.0,7.0,64,0.00,,,0.00,12,Wunderground v.1.15,2013-11-15 22:18:00,
2013-11-15 16:20:00,50.6,38.9,29.96,SSW,200,2.0,3.0,64,0.00,,,0.00,9,Wunderground v.1.15,2013-11-15 22:20:00,
2013-11-15 16:22:00,50.5,38.8,29.96,SSW,200,0.0,3.0,64,0.00,,,0.00,7,Wunderground v.1.15,2013-11-15 22:22:00,
2013-11-15 16:23:00,50.5,38.8,29.96,SSW,200,0.0,3.0,64,0.00,,,0.00,7,Wunderground v.1.15,2013-11-15 22:23:00,
2013-11-15 16:24:00,50.4,38.7,29.96,SSW,200,0.0,3.0,64,0.00,,,0.00,7,Wunderground v.1.15,2013-11-15 22:24:00,
2013-11-15 16:25:00,50.3,38.6,29.96,SSW,200,0.0,3.0,64,0.00,,,0.00,5,Wunderground v.1.15,2013-11-15 22:25:00,
2013-11-15 16:27:00,50.2,38.5,29.97,SSW,200,0.0,3.0,64,0.00,,,0.00,5,Wunderground v.1.15,2013-11-15 22:27:00,
2013-11-15 16:28:00,50.1,38.4,29.96,SSW,200,0.0,3.0,64,0.00,,,0.00,0,Wunderground v.1.15,2013-11-15 22:28:00,
2013-11-15 16:29:00,50.0,38.7,29.96,SSW,200,0.0,3.0,65,0.00,,,0.00,0,Wunderground v.1.15,2013-11-15 22:29:00,
2013-11-15 16:30:00,49.9,38.2,29.97,SSW,200,0.0,0.0,64,0.00,,,0.00,0,Wunderground v.1.15,2013-11-15 22:30:00,
2013-11-15 16:31:00,49.9,38.2,29.97,SSW,200,0.0,0.0,64,0.00,,,0.00,0,Wunderground v.1.15,2013-11-15 22:31:00,
2013-11-15 16:33:00,49.7,38.0,29.96,SSW,200,0.0,0.0,64,0.00,,,0.00,0,Wunderground v.1.15,2013-11-15 22:33:00,
2013-11-15 16:34:00,49.7,38.0,29.96,SSW,200,0.0,0.0,64,0.00,,,0.00,0,Wunderground v.1.15,2013-11-15 22:34:00,
2013-11-15 16:36:00,49.5,37.8,29.97,SSW,200,0.0,0.0,64,0.00,,,0.00,0,Wunderground v.1.15,2013-11-15 22:36:00,
2013-11-15 16:38:00,49.2,37.9,29.96,SSW,200,0.0,0.0,65,0.00,,,0.00,0,Wunderground v.1.15,2013-11-15 22:38:00,
2013-11-15 16:39:00,49.1,37.8,29.96,SSW,200,0.0,0.0,65,0.00,,,0.00,0,Wunderground v.1.15,2013-11-15 22:39:00,
2013-11-15 16:41:00,48.7,37.5,29.97,SSW,200,0.0,0.0,65,0.00,,,0.00,0,Wunderground v.1.15,2013-11-15 22:41:00,
2013-11-15 16:44:00,48.3,37.5,29.96,SSW,200,0.0,0.0,66,0.00,,,0.00,0,Wunderground v.1.15,2013-11-15 22:44:00,
2013-11-15 16:46:00,48.0,37.2,29.96,SSW,200,0.0,0.0,66,0.00,,,0.00,0,Wunderground v.1.15,2013-11-15 22:46:00,
2013-11-15 16:47:00,47.9,37.1,29.96,SSW,200,0.0,0.0,66,0.00,,,0.00,0,Wunderground v.1.15,2013-11-15 22:47:00,
2013-11-15 16:49:00,47.6,37.2,29.96,SSW,200,0.0,0.0,67,0.00,,,0.00,0,Wunderground v.1.15,2013-11-15 22:49:00,
2013-11-15 16:52:00,47.2,37.2,29.96,SSW,200,0.0,0.0,68,0.00,,,0.00,0,Wunderground v.1.15,2013-11-15 22:52:00,
2013-11-15 16:54:00,46.9,36.9,29.97,SSW,200,0.0,0.0,68,0.00,,,0.00,0,Wunderground v.1.15,2013-11-15 22:54:00,
2013-11-15 16:55:00,46.8,36.8,29.96,SSW,200,0.0,0.0,68,0.00,,,0.00,0,Wunderground v.1.15,2013-11-15 22:55:00,
2013-11-15 16:56:00,46.7,36.7,29.96,SSW,200,0.0,0.0,68,0.00,,,0.00,0,Wunderground v.1.15,2013-11-15 22:56:00,
2013-11-15 16:57:00,46.5,36.5,29.97,SSW,200,0.0,0.0,68,0.00,,,0.00,0,Wunderground v.1.15,2013-11-15 22:57:00,
2013-11-15 16:58:00,46.5,36.5,29.96,SSW,200,0.0,0.0,68,0.00,,,0.00,0,Wunderground v.1.15,2013-11-15 22:58:00,
2013-11-15 16:59:00,46.3,36.7,29.97,SSW,200,0.0,0.0,69,0.00,,,0.00,0,Wunderground v.1.15,2013-11-15 22:59:00,
2013-11-15 17:00:00,46.2,36.6,29.96,SSW,200,0.0,0.0,69,0.00,,,0.00,0,Wunderground v.1.15,2013-11-15 23:00:00,
2013-11-15 17:01:00,46.0,36.8,29.96,SSW,200,0.0,0.0,70,0.00,,,0.00,0,Wunderground v.1.15,2013-11-15 23:01:00,
2013-11-15 17:02:00,45.9,36.7,29.97,SSW,200,0.0,0.0,70,0.00,,,0.00,0,Wunderground v.1.15,2013-11-15 23:02:00,
2013-11-15 17:03:00,45.8,36.9,29.97,SSW,200,0.0,0.0,71,0.00,,,0.00,0,Wunderground v.1.15,2013-11-15 23:03:00,
2013-11-15 17:04:00,45.7,36.8,29.97,SSW,200,0.0,0.0,71,0.00,,,0.00,0,Wunderground v.1.15,2013-11-15 23:04:00,
2013-11-15 17:05:00,45.6,37.1,29.97,SSW,200,0.0,0.0,72,0.00,,,0.00,0,Wunderground v.1.15,2013-11-15 23:05:00,
2013-11-15 17:06:00,45.5,37.3,29.97,SSW,200,0.0,0.0,73,0.00,,,0.00,0,Wunderground v.1.15,2013-11-15 23:06:00,
2013-11-15 17:07:00,45.4,36.9,29.97,SSW,200,0.0,0.0,72,0.00,,,0.00,0,Wunderground v.1.15,2013-11-15 23:07:00,
2013-11-15 17:08:00,45.3,36.8,29.97,SSW,200,0.0,0.0,72,0.00,,,0.00,0,Wunderground v.1.15,2013-11-15 23:08:00,
2013-11-15 17:09:00,45.2,36.7,29.97,SSW,200,0.0,0.0,72,0.00,,,0.00,0,Wunderground v.1.15,2013-11-15 23:09:00,
2013-11-15 17:10:00,45.1,36.6,29.97,SSW,200,0.0,0.0,72,0.00,,,0.00,0,Wunderground v.1.15,2013-11-15 23:10:00,
2013-11-15 17:12:00,45.0,36.5,29.97,SSW,200,0.0,0.0,72,0.00,,,0.00,0,Wunderground v.1.15,2013-11-15 23:12:00,
2013-11-15 17:13:00,44.8,36.3,29.97,SSW,200,0.0,0.0,72,0.00,,,0.00,0,Wunderground v.1.15,2013-11-15 23:13:00,
2013-11-15 17:14:00,44.7,36.2,29.97,SSW,200,0.0,0.0,72,0.00,,,0.00,0,Wunderground v.1.15,2013-11-15 23:14:00,
2013-11-15 17:16:00,44.5,36.4,29.97,SSW,200,0.0,1.0,73,0.00,,,0.00,0,Wunderground v.1.15,2013-11-15 23:16:00,
2013-11-15 17:17:00,44.4,36.3,29.97,SSW,200,0.0,1.0,73,0.00,,,0.00,0,Wunderground v.1.15,2013-11-15 23:17:00,
2013-11-15 17:19:00,44.2,36.1,29.97,SSW,200,0.0,1.0,73,0.00,,,0.00,0,Wunderground v.1.15,2013-11-15 23:19:00,
2013-11-15 17:20:00,44.1,36.0,29.97,SSW,200,0.0,1.0,73,0.00,,,0.00,0,Wunderground v.1.15,2013-11-15 23:20:00,
2013-11-15 17:21:00,44.0,35.9,29.97,SSW,200,1.0,1.0,73,0.00,,,0.00,0,Wunderground v.1.15,2013-11-15 23:21:00,
2013-11-15 17:22:00,43.9,35.8,29.97,SSW,200,0.0,1.0,73,0.00,,,0.00,0,Wunderground v.1.15,2013-11-15 23:22:00,
2013-11-15 17:23:00,43.8,36.0,29.97,SSW,200,0.0,1.0,74,0.00,,,0.00,0,Wunderground v.1.15,2013-11-15 23:23:00,
2013-11-15 17:24:00,43.6,35.9,29.97,SSW,200,0.0,1.0,74,0.00,,,0.00,0,Wunderground v.1.15,2013-11-15 23:24:00,
2013-11-15 17:25:00,43.6,35.9,29.97,SSW,200,0.0,1.0,74,0.00,,,0.00,0,Wunderground v.1.15,2013-11-15 23:25:00,
2013-11-15 17:26:00,43.5,36.1,29.97,SSW,200,0.0,1.0,75,0.00,,,0.00,0,Wunderground v.1.15,2013-11-15 23:26:00,
2013-11-15 17:27:00,43.4,36.0,29.97,SSW,200,0.0,1.0,75,0.00,,,0.00,0,Wunderground v.1.15,2013-11-15 23:27:00,
2013-11-15 17:28:00,43.4,36.0,29.97,SSW,200,0.0,2.0,75,0.00,,,0.00,0,Wunderground v.1.15,2013-11-15 23:28:00,
2013-11-15 17:29:00,43.4,36.3,29.97,SSW,200,0.0,0.0,76,0.00,,,0.00,0,Wunderground v.1.15,2013-11-15 23:29:00,
2013-11-15 17:31:00,43.3,36.2,29.97,SSW,200,0.0,2.0,76,0.00,,,0.00,0,Wunderground v.1.15,2013-11-15 23:31:00,
2013-11-15 17:32:00,43.3,36.2,29.97,SSW,200,0.0,2.0,76,0.00,,,0.00,0,Wunderground v.1.15,2013-11-15 23:32:00,
2013-11-15 17:33:00,43.2,36.1,29.97,SSW,200,1.0,2.0,76,0.00,,,0.00,0,Wunderground v.1.15,2013-11-15 23:33:00,
2013-11-15 17:34:00,43.2,36.1,29.97,SSW,200,1.0,2.0,76,0.00,,,0.00,0,Wunderground v.1.15,2013-11-15 23:34:00,
2013-11-15 17:35:00,43.2,36.5,29.97,SSW,200,0.0,4.0,77,0.00,,,0.00,0,Wunderground v.1.15,2013-11-15 23:35:00,
2013-11-15 17:36:00,43.2,36.5,29.97,SSW,200,0.0,4.0,77,0.00,,,0.00,0,Wunderground v.1.15,2013-11-15 23:36:00,
2013-11-15 17:37:00,43.2,36.5,29.97,SSW,200,1.0,4.0,77,0.00,,,0.00,0,Wunderground v.1.15,2013-11-15 23:37:00,
2013-11-15 17:39:00,43.2,36.5,29.97,SSW,200,1.0,4.0,77,0.00,,,0.00,0,Wunderground v.1.15,2013-11-15 23:39:00,
2013-11-15 17:40:00,43.2,36.5,29.98,SSW,200,1.0,3.0,77,0.00,,,0.00,0,Wunderground v.1.15,2013-11-15 23:40:00,
2013-11-15 17:41:00,43.2,36.5,29.98,SSW,200,0.0,3.0,77,0.00,,,0.00,0,Wunderground v.1.15,2013-11-15 23:41:00,
2013-11-15 17:42:00,43.2,36.5,29.98,SSW,200,2.0,3.0,77,0.00,,,0.00,0,Wunderground v.1.15,2013-11-15 23:42:00,
2013-11-15 17:44:00,43.2,36.5,29.98,SSW,196,3.0,5.0,77,0.00,,,0.00,0,Wunderground v.1.15,2013-11-15 23:44:00,
2013-11-15 17:45:00,43.2,36.5,29.98,SSW,196,0.0,5.0,77,0.00,,,0.00,0,Wunderground v.1.15,2013-11-15 23:45:00,
2013-11-15 17:46:00,43.2,36.5,29.98,SSW,196,1.0,5.0,77,0.00,,,0.00,0,Wunderground v.1.15,2013-11-15 23:46:00,
2013-11-15 17:47:00,43.2,36.5,29.98,SSW,196,1.0,5.0,77,0.00,,,0.00,0,Wunderground v.1.15,2013-11-15 23:47:00,
2013-11-15 17:49:00,43.1,36.4,29.98,SSW,196,1.0,5.0,77,0.00,,,0.00,0,Wunderground v.1.15,2013-11-15 23:49:00,
2013-11-15 17:51:00,43.1,36.4,29.98,SSW,196,0.0,1.0,77,0.00,,,0.00,0,Wunderground v.1.15,2013-11-15 23:51:00,
2013-11-15 17:53:00,43.1,36.4,29.98,SSW,196,1.0,1.0,77,0.00,,,0.00,0,Wunderground v.1.15,2013-11-15 23:53:00,
2013-11-15 17:54:00,43.1,36.4,29.98,SSW,196,0.0,1.0,77,0.00,,,0.00,0,Wunderground v.1.15,2013-11-15 23:54:00,
2013-11-15 17:55:00,43.0,36.3,29.98,SSW,196,0.0,1.0,77,0.00,,,0.00,0,Wunderground v.1.15,2013-11-15 23:55:00,
2013-11-15 17:56:00,43.0,36.3,29.98,SSW,196,0.0,1.0,77,0.00,,,0.00,0,Wunderground v.1.15,2013-11-15 23:56:00,
2013-11-15 17:58:00,42.9,36.2,29.98,SSW,196,0.0,1.0,77,0.00,,,0.00,0,Wunderground v.1.15,2013-11-15 23:58:00,
2013-11-15 18:00:00,42.9,36.5,29.98,SSW,196,0.0,1.0,78,0.00,,,0.00,0,Wunderground v.1.15,2013-11-16 00:00:00,
2013-11-15 18:01:00,42.9,36.5,29.98,SSW,196,3.0,3.0,78,0.00,,,0.00,0,Wunderground v.1.15,2013-11-16 00:01:00,
2013-11-15 18:03:00,42.9,36.5,29.98,SSW,196,1.0,3.0,78,0.00,,,0.00,0,Wunderground v.1.15,2013-11-16 00:03:00,
2013-11-15 18:05:00,42.9,36.5,29.98,SSW,196,1.0,3.0,78,0.00,,,0.00,0,Wunderground v.1.15,2013-11-16 00:05:00,
2013-11-15 18:06:00,43.0,36.6,29.98,SSW,196,0.0,3.0,78,0.00,,,0.00,0,Wunderground v.1.15,2013-11-16 00:06:00,
2013-11-15 18:07:00,43.0,36.6,29.98,SSW,196,0.0,3.0,78,0.00,,,0.00,0,Wunderground v.1.15,2013-11-16 00:07:00,
2013-11-15 18:08:00,43.0,36.6,29.98,SSW,196,2.0,4.0,78,0.00,,,0.00,0,Wunderground v.1.15,2013-11-16 00:08:00,
2013-11-15 18:10:00,43.1,36.7,29.98,SSW,196,1.0,1.0,78,0.00,,,0.00,0,Wunderground v.1.15,2013-11-16 00:10:00,
2013-11-15 18:11:00,43.1,36.7,29.98,SSW,196,0.0,1.0,78,0.00,,,0.00,0,Wunderground v.1.15,2013-11-16 00:11:00,
2013-11-15 18:12:00,43.1,36.7,29.98,SSW,196,6.0,7.0,78,0.00,,,0.00,0,Wunderground v.1.15,2013-11-16 00:12:00,
2013-11-15 18:13:00,43.2,36.8,29.98,SSW,196,0.0,7.0,78,0.00,,,0.00,0,Wunderground v.1.15,2013-11-16 00:13:00,
2013-11-15 18:16:00,43.2,36.5,29.98,SSW,193,0.0,7.0,77,0.00,,,0.00,0,Wunderground v.1.15,2013-11-16 00:16:00,
2013-11-15 18:17:00,43.2,36.5,29.98,SSW,193,3.0,7.0,77,0.00,,,0.00,0,Wunderground v.1.15,2013-11-16 00:17:00,
2013-11-15 18:18:00,43.2,36.5,29.98,SSW,193,2.0,7.0,77,0.00,,,0.00,0,Wunderground v.1.15,2013-11-16 00:18:00,
2013-11-15 18:19:00,43.2,36.5,29.98,SSW,193,1.0,7.0,77,0.00,,,0.00,0,Wunderground v.1.15,2013-11-16 00:19:00,
2013-11-15 18:22:00,43.2,36.5,29.98,SSW,193,0.0,2.0,77,0.00,,,0.00,0,Wunderground v.1.15,2013-11-16 00:22:00,
2013-11-15 18:23:00,43.2,36.5,29.98,SSW,193,0.0,2.0,77,0.00,,,0.00,0,Wunderground v.1.15,2013-11-16 00:23:00,
2013-11-15 18:24:00,43.1,36.4,29.98,SSW,193,0.0,2.0,77,0.00,,,0.00,0,Wunderground v.1.15,2013-11-16 00:24:00,
2013-11-15 18:27:00,43.0,36.0,29.98,SSW,193,0.0,2.0,76,0.00,,,0.00,0,Wunderground v.1.15,2013-11-16 00:27:00,
2013-11-15 18:28:00,43.0,36.3,29.98,SSW,193,0.0,2.0,77,0.00,,,0.00,0,Wunderground v.1.15,2013-11-16 00:28:00,
2013-11-15 18:30:00,42.9,35.9,29.98,SSW,193,0.0,0.0,76,0.00,,,0.00,0,Wunderground v.1.15,2013-11-16 00:30:00,
2013-11-15 18:32:00,42.8,35.8,29.98,SSW,193,0.0,4.0,76,0.00,,,0.00,0,Wunderground v.1.15,2013-11-16 00:32:00,
2013-11-15 18:33:00,42.7,36.0,29.98,SSW,193,0.0,4.0,77,0.00,,,0.00,0,Wunderground v.1.15,2013-11-16 00:33:00,
2013-11-15 18:35:00,42.7,36.0,29.98,SSW,193,1.0,4.0,77,0.00,,,0.00,0,Wunderground v.1.15,2013-11-16 00:35:00,
2013-11-15 18:37:00,42.6,35.9,29.98,SSW,193,0.0,4.0,77,0.00,,,0.00,0,Wunderground v.1.15,2013-11-16 00:37:00,
2013-11-15 18:38:00,42.6,35.9,29.98,SSW,193,1.0,4.0,77,0.00,,,0.00,0,Wunderground v.1.15,2013-11-16 00:38:00,
2013-11-15 18:39:00,42.5,35.8,29.98,SSW,193,0.0,4.0,77,0.00,,,0.00,0,Wunderground v.1.15,2013-11-16 00:39:00,
2013-11-15 18:41:00,42.4,35.7,29.98,SSW,193,2.0,3.0,77,0.00,,,0.00,0,Wunderground v.1.15,2013-11-16 00:41:00,
2013-11-15 18:42:00,42.4,35.7,29.99,SSW,193,0.0,3.0,77,0.00,,,0.00,0,Wunderground v.1.15,2013-11-16 00:42:00,
2013-11-15 18:43:00,42.3,35.9,29.98,SSW,193,0.0,3.0,78,0.00,,,0.00,0,Wunderground v.1.15,2013-11-16 00:43:00,
2013-11-15 18:44:00,42.3,35.9,29.98,SSW,193,0.0,3.0,78,0.00,,,0.00,0,Wunderground v.1.15,2013-11-16 00:44:00,
2013-11-15 18:46:00,42.3,35.9,29.99,SSW,193,3.0,4.0,78,0.00,,,0.00,0,Wunderground v.1.15,2013-11-16 00:46:00,
2013-11-15 18:47:00,42.3,35.9,29.99,SSW,193,1.0,4.0,78,0.00,,,0.00,0,Wunderground v.1.15,2013-11-16 00:47:00,
2013-11-15 18:48:00,42.3,35.9,29.99,SSW,193,0.0,4.0,78,0.00,,,0.00,0,Wunderground v.1.15,2013-11-16 00:48:00,
2013-11-15 18:50:00,42.3,35.9,29.99,SSW,193,2.0,2.0,78,0.00,,,0.00,0,Wunderground v.1.15,2013-11-16 00:50:00,
2013-11-15 18:51:00,42.3,35.9,29.98,SSW,193,3.0,3.0,78,0.00,,,0.00,0,Wunderground v.1.15,2013-11-16 00:51:00,
2013-11-15 18:52:00,42.3,35.9,29.98,SSW,193,1.0,3.0,78,0.00,,,0.00,0,Wunderground v.1.15,2013-11-16 00:52:00,
2013-11-15 18:54:00,42.3,35.9,29.98,SSW,193,2.0,3.0,78,0.00,,,0.00,0,Wunderground v.1.15,2013-11-16 00:54:00,
2013-11-15 18:55:00,42.3,35.9,29.98,SSW,193,2.0,3.0,78,0.00,,,0.00,0,Wunderground v.1.15,2013-11-16 00:55:00,
2013-11-15 18:57:00,42.4,36.0,29.98,South,185,3.0,5.0,78,0.00,,,0.00,0,Wunderground v.1.15,2013-11-16 00:57:00,
2013-11-15 18:58:00,42.4,36.0,29.98,South,185,1.0,5.0,78,0.00,,,0.00,0,Wunderground v.1.15,2013-11-16 00:58:00,
2013-11-15 18:59:00,42.4,36.0,29.98,South,186,3.0,5.0,78,0.00,,,0.00,0,Wunderground v.1.15,2013-11-16 00:59:00,
2013-11-15 19:00:00,42.5,36.1,29.98,South,181,3.0,6.0,78,0.00,,,0.00,0,Wunderground v.1.15,2013-11-16 01:00:00,
2013-11-15 19:03:00,42.5,35.8,29.98,South,170,5.0,6.0,77,0.00,,,0.00,0,Wunderground v.1.15,2013-11-16 01:03:00,
2013-11-15 19:04:00,42.6,35.9,29.98,South,169,6.0,7.0,77,0.00,,,0.00,0,Wunderground v.1.15,2013-11-16 01:04:00,
2013-11-15 19:05:00,42.6,35.9,29.98,SSE,163,2.0,7.0,77,0.00,,,0.00,0,Wunderground v.1.15,2013-11-16 01:05:00,
2013-11-15 19:08:00,42.6,35.9,29.98,SSE,166,2.0,7.0,77,0.00,,,0.00,0,Wunderground v.1.15,2013-11-16 01:08:00,
2013-11-15 19:09:00,42.6,35.9,29.98,SSE,166,4.0,7.0,77,0.00,,,0.00,0,Wunderground v.1.15,2013-11-16 01:09:00,
2013-11-15 19:10:00,42.6,35.9,29.98,South,173,6.0,6.0,77,0.00,,,0.00,0,Wunderground v.1.15,2013-11-16 01:10:00,
2013-11-15 19:11:00,42.6,35.6,29.98,South,173,4.0,6.0,76,0.00,,,0.00,0,Wunderground v.1.15,2013-11-16 01:11:00,
2013-11-15 19:13:00,42.6,35.9,29.98,South,180,5.0,7.0,77,0.00,,,0.00,0,Wunderground v.1.15,2013-11-16 01:13:00,
2013-11-15 19:14:00,42.6,35.9,29.98,South,180,5.0,7.0,77,0.00,,,0.00,0,Wunderground v.1.15,2013-11-16 01:14:00,
2013-11-15 19:15:00,42.6,35.6,29.98,South,178,6.0,7.0,76,0.00,,,0.00,0,Wunderground v.1.15,2013-11-16 01:15:00,
2013-11-15 19:16:00,42.6,35.6,29.98,South,176,7.0,7.0,76,0.00,,,0.00,0,Wunderground v.1.15,2013-11-16 01:16:00,
2013-11-15 19:18:00,42.6,35.9,29.97,South,173,6.0,8.0,77,0.00,,,0.00,0,Wunderground v.1.15,2013-11-16 01:18:00,
2013-11-15 19:19:00,42.6,35.9,29.97,South,172,5.0,8.0,77,0.00,,,0.00,0,Wunderground v.1.15,2013-11-16 01:19:00,
2013-11-15 19:20:00,42.6,35.9,29.97,South,171,5.0,5.0,77,0.00,,,0.00,0,Wunderground v.1.15,2013-11-16 01:20:00,
2013-11-15 19:21:00,42.6,35.9,29.97,South,171,5.0,5.0,77,0.00,,,0.00,0,Wunderground v.1.15,2013-11-16 01:21:00,
2013-11-15 19:22:00,42.7,36.0,29.97,South,171,7.0,7.0,77,0.00,,,0.00,0,Wunderground v.1.15,2013-11-16 01:22:00,
2013-11-15 19:23:00,42.7,36.0,29.97,SSE,156,7.0,8.0,77,0.00,,,0.00,0,Wunderground v.1.15,2013-11-16 01:23:00,
2013-11-15 19:24:00,42.7,36.0,29.98,South,180,6.0,8.0,77,0.00,,,0.00,0,Wunderground v.1.15,2013-11-16 01:24:00,
2013-11-15 19:25:00,42.7,35.7,29.97,SSE,167,5.0,8.0,76,0.00,,,0.00,0,Wunderground v.1.15,2013-11-16 01:25:00,
2013-11-15 19:26:00,42.8,35.8,29.97,SSE,167,4.0,8.0,76,0.00,,,0.00,0,Wunderground v.1.15,2013-11-16 01:26:00,
2013-11-15 19:27:00,42.8,35.8,29.98,SSE,160,6.0,9.0,76,0.00,,,0.00,0,Wunderground v.1.15,2013-11-16 01:27:00,
2013-11-15 19:29:00,42.9,35.9,29.98,SSE,165,6.0,9.0,76,0.00,,,0.00,0,Wunderground v.1.15,2013-11-16 01:29:00,
2013-11-15 19:30:00,42.9,35.9,29.97,SE,140,8.0,9.0,76,0.00,,,0.00,0,Wunderground v.1.15,2013-11-16 01:30:00,
2013-11-15 19:31:00,43.0,35.6,29.97,SSE,161,7.0,9.0,75,0.00,,,0.00,0,Wunderground v.1.15,2013-11-16 01:31:00,
2013-11-15 19:32:00,43.0,35.6,29.97,SSE,165,8.0,11.0,75,0.00,,,0.00,0,Wunderground v.1.15,2013-11-16 01:32:00,
2013-11-15 19:34:00,43.1,35.7,29.97,SSE,161,7.0,12.0,75,0.00,,,0.00,0,Wunderground v.1.15,2013-11-16 01:34:00,
2013-11-15 19:35:00,43.2,35.8,29.97,SSE,167,5.0,12.0,75,0.00,,,0.00,0,Wunderground v.1.15,2013-11-16 01:35:00,
2013-11-15 19:37:00,43.3,35.9,29.97,SSE,158,6.0,12.0,75,0.00,,,0.00,0,Wunderground v.1.15,2013-11-16 01:37:00,
2013-11-15 19:38:00,43.3,35.9,29.97,SSE,165,5.0,12.0,75,0.00,,,0.00,0,Wunderground v.1.15,2013-11-16 01:38:00,
2013-11-15 19:39:00,43.3,35.9,29.97,SSE,167,6.0,12.0,75,0.00,,,0.00,0,Wunderground v.1.15,2013-11-16 01:39:00,
2013-11-15 19:40:00,43.3,35.9,29.97,South,169,5.0,8.0,75,0.00,,,0.00,0,Wunderground v.1.15,2013-11-16 01:40:00,
2013-11-15 19:41:00,43.3,35.9,29.97,South,170,6.0,8.0,75,0.00,,,0.00,0,Wunderground v.1.15,2013-11-16 01:41:00,
2013-11-15 19:42:00,43.3,35.9,29.97,SSE,167,8.0,8.0,75,0.00,,,0.00,0,Wunderground v.1.15,2013-11-16 01:42:00,
2013-11-15 19:44:00,43.3,35.9,29.97,South,174,10.0,10.0,75,0.00,,,0.00,0,Wunderground v.1.15,2013-11-16 01:44:00,
2013-11-15 19:45:00,43.3,35.9,29.97,SSE,167,6.0,10.0,75,0.00,,,0.00,0,Wunderground v.1.15,2013-11-16 01:45:00,
2013-11-15 19:46:00,43.3,35.9,29.97,SSE,165,6.0,10.0,75,0.00,,,0.00,0,Wunderground v.1.15,2013-11-16 01:46:00,
2013-11-15 19:48:00,43.3,35.6,29.97,South,169,9.0,10.0,74,0.00,,,0.00,0,Wunderground v.1.15,2013-11-16 01:48:00,
2013-11-15 19:50:00,43.3,35.6,29.97,South,169,8.0,8.0,74,0.00,,,0.00,0,Wunderground v.1.15,2013-11-16 01:50:00,
2013-11-15 19:51:00,43.3,35.6,29.97,South,173,5.0,9.0,74,0.00,,,0.00,0,Wunderground v.1.15,2013-11-16 01:51:00,
2013-11-15 19:53:00,43.3,35.6,29.97,South,169,6.0,9.0,74,0.00,,,0.00,0,Wunderground v.1.15,2013-11-16 01:53:00,
2013-11-15 19:55:00,43.3,35.6,29.97,South,178,6.0,9.0,74,0.00,,,0.00,0,Wunderground v.1.15,2013-11-16 01:55:00,
2013-11-15 19:56:00,43.3,35.6,29.97,South,177,6.0,9.0,74,0.00,,,0.00,0,Wunderground v.1.15,2013-11-16 01:56:00,
2013-11-15 19:57:00,43.3,35.6,29.97,South,173,7.0,9.0,74,0.00,,,0.00,0,Wunderground v.1.15,2013-11-16 01:57:00,
2013-11-15 19:58:00,43.3,35.6,29.97,South,172,6.0,9.0,74,0.00,,,0.00,0,Wunderground v.1.15,2013-11-16 01:58:00,
2013-11-15 20:01:00,43.3,35.6,29.97,South,171,8.0,9.0,74,0.00,,,0.00,0,Wunderground v.1.15,2013-11-16 02:01:00,
2013-11-15 20:02:00,43.3,35.6,29.97,SSE,158,8.0,9.0,74,0.00,,,0.00,0,Wunderground v.1.15,2013-11-16 02:02:00,
2013-11-15 20:03:00,43.3,35.6,29.97,SSE,147,10.0,11.0,74,0.00,,,0.00,0,Wunderground v.1.15,2013-11-16 02:03:00,
2013-11-15 20:06:00,43.3,35.6,29.97,SSE,155,11.0,11.0,74,0.00,,,0.00,0,Wunderground v.1.15,2013-11-16 02:06:00,
2013-11-15 20:07:00,43.3,35.6,29.97,SSE,159,7.0,11.0,74,0.00,,,0.00,0,Wunderground v.1.15,2013-11-16 02:07:00,
2013-11-15 20:08:00,43.3,35.2,29.97,SSE,157,8.0,11.0,73,0.00,,,0.00,0,Wunderground v.1.15,2013-11-16 02:08:00,
2013-11-15 20:11:00,43.3,35.2,29.97,SSE,165,5.0,8.0,73,0.00,,,0.00,0,Wunderground v.1.15,2013-11-16 02:11:00,
2013-11-15 20:12:00,43.4,35.3,29.97,SSE,165,7.0,12.0,73,0.00,,,0.00,0,Wunderground v.1.15,2013-11-16 02:12:00,
2013-11-15 20:13:00,43.4,35.3,29.97,SSE,164,5.0,12.0,73,0.00,,,0.00,0,Wunderground v.1.15,2013-11-16 02:13:00,
2013-11-15 20:14:00,43.4,35.3,29.97,SSE,165,6.0,12.0,73,0.00,,,0.00,0,Wunderground v.1.15,2013-11-16 02:14:00,
2013-11-15 20:16:00,43.4,35.3,29.97,SSE,157,9.0,12.0,73,0.00,,,0.00,0,Wunderground v.1.15,2013-11-16 02:16:00,
2013-11-15 20:17:00,43.4,35.3,29.97,SSE,159,6.0,12.0,73,0.00,,,0.00,0,Wunderground v.1.15,2013-11-16 02:17:00,
2013-11-15 20:18:00,43.5,35.4,29.97,South,169,10.0,12.0,73,0.00,,,0.00,0,Wunderground v.1.15,2013-11-16 02:18:00,
2013-11-15 20:20:00,43.5,35.4,29.97,SSE,163,10.0,11.0,73,0.00,,,0.00,0,Wunderground v.1.15,2013-11-16 02:20:00,
2013-11-15 20:21:00,43.5,35.4,29.97,SSE,152,6.0,11.0,73,0.00,,,0.00,0,Wunderground v.1.15,2013-11-16 02:21:00,
2013-11-15 20:22:00,43.5,35.4,29.97,South,170,9.0,11.0,73,0.00,,,0.00,0,Wunderground v.1.15,2013-11-16 02:22:00,
2013-11-15 20:23:00,43.5,35.4,29.97,SE,144,12.0,14.0,73,0.00,,,0.00,0,Wunderground v.1.15,2013-11-16 02:23:00,
2013-11-15 20:26:00,43.5,35.1,29.97,SSE,166,6.0,14.0,72,0.00,,,0.00,0,Wunderground v.1.15,2013-11-16 02:26:00,
2013-11-15 20:27:00,43.4,35.0,29.97,SSE,161,8.0,14.0,72,0.00,,,0.00,0,Wunderground v.1.15,2013-11-16 02:27:00,
2013-11-15 20:28:00,43.4,35.0,29.97,South,173,7.0,14.0,72,0.00,,,0.00,0,Wunderground v.1.15,2013-11-16 02:28:00,
2013-11-15 20:29:00,43.4,35.0,29.97,SSE,163,6.0,14.0,72,0.00,,,0.00,0,Wunderground v.1.15,2013-11-16 02:29:00,
2013-11-15 20:31:00,43.3,35.2,29.97,SSE,160,10.0,11.0,73,0.00,,,0.00,0,Wunderground v.1.15,2013-11-16 02:31:00,
2013-11-15 20:32:00,43.3,35.2,29.97,South,185,5.0,11.0,73,0.00,,,0.00,0,Wunderground v.1.15,2013-11-16 02:32:00,
2013-11-15 20:33:00,43.3,35.2,29.97,SSE,161,5.0,11.0,73,0.00,,,0.00,0,Wunderground v.1.15,2013-11-16 02:33:00,
2013-11-15 20:34:00,43.2,35.1,29.97,South,170,8.0,11.0,73,0.00,,,0.00,0,Wunderground v.1.15,2013-11-16 02:34:00,
2013-11-15 20:36:00,43.1,35.0,29.98,South,171,8.0,11.0,73,0.00,,,0.00,0,Wunderground v.1.15,2013-11-16 02:36:00,
2013-11-15 20:37:00,43.0,34.9,29.98,South,169,9.0,11.0,73,0.00,,,0.00,0,Wunderground v.1.15,2013-11-16 02:37:00,
2013-11-15 20:38:00,43.0,34.9,29.98,SSE,163,7.0,12.0,73,0.00,,,0.00,0,Wunderground v.1.15,2013-11-16 02:38:00,
2013-11-15 20:39:00,42.9,34.8,29.98,SSE,160,8.0,10.0,73,0.00,,,0.00,0,Wunderground v.1.15,2013-11-16 02:39:00,
2013-11-15 20:41:00,42.8,35.1,29.98,South,170,7.0,11.0,74,0.00,,,0.00,0,Wunderground v.1.15,2013-11-16 02:41:00,
2013-11-15 20:42:00,42.8,35.1,29.98,South,176,5.0,11.0,74,0.00,,,0.00,0,Wunderground v.1.15,2013-11-16 02:42:00,
2013-11-15 20:43:00,42.8,35.1,29.98,South,183,7.0,11.0,74,0.00,,,0.00,0,Wunderground v.1.15,2013-11-16 02:43:00,
2013-11-15 20:45:00,42.7,35.0,29.98,South,172,6.0,11.0,74,0.00,,,0.00,0,Wunderground v.1.15,2013-11-16 02:45:00,
2013-11-15 20:46:00,42.7,35.0,29.98,South,172,2.0,11.0,74,0.00,,,0.00,0,Wunderground v.1.15,2013-11-16 02:46:00,
2013-11-15 20:47:00,42.7,35.0,29.98,SSE,167,7.0,11.0,74,0.00,,,0.00,0,Wunderground v.1.15,2013-11-16 02:47:00,
2013-11-15 20:48:00,42.6,34.9,29.98,SSE,157,8.0,11.0,74,0.00,,,0.00,0,Wunderground v.1.15,2013-11-16 02:48:00,
2013-11-15 20:49:00,42.6,34.9,29.98,South,176,6.0,11.0,74,0.00,,,0.00,0,Wunderground v.1.15,2013-11-16 02:49:00,
2013-11-15 20:51:00,42.6,34.9,29.98,South,189,7.0,10.0,74,0.00,,,0.00,0,Wunderground v.1.15,2013-11-16 02:51:00,
2013-11-15 20:53:00,42.5,34.8,29.98,South,173,6.0,10.0,74,0.00,,,0.00,0,Wunderground v.1.15,2013-11-16 02:53:00,
2013-11-15 20:54:00,42.5,34.8,29.98,SSE,165,7.0,10.0,74,0.00,,,0.00,0,Wunderground v.1.15,2013-11-16 02:54:00,
2013-11-15 20:56:00,42.4,35.0,29.98,South,170,8.0,12.0,75,0.00,,,0.00,0,Wunderground v.1.15,2013-11-16 02:56:00,
2013-11-15 20:58:00,42.3,34.9,29.98,South,172,9.0,12.0,75,0.00,,,0.00,0,Wunderground v.1.15,2013-11-16 02:58:00,
2013-11-15 20:59:00,42.3,34.9,29.98,South,177,8.0,12.0,75,0.00,,,0.00,0,Wunderground v.1.15,2013-11-16 02:59:00,
2013-11-15 21:00:00,42.3,34.9,29.98,SSW,192,9.0,10.0,75,0.00,,,0.00,0,Wunderground v.1.15,2013-11-16 03:00:00,
2013-11-15 21:01:00,42.3,34.9,29.99,SSE,167,8.0,10.0,75,0.00,,,0.00,0,Wunderground v.1.15,2013-11-16 03:01:00,
2013-11-15 21:03:00,42.2,34.8,29.98,South,181,8.0,10.0,75,0.00,,,0.00,0,Wunderground v.1.15,2013-11-16 03:03:00,
2013-11-15 21:04:00,42.2,34.8,29.98,South,178,7.0,11.0,75,0.00,,,0.00,0,Wunderground v.1.15,2013-11-16 03:04:00,
2013-11-15 21:05:00,42.1,34.7,29.98,South,181,4.0,11.0,75,0.00,,,0.00,0,Wunderground v.1.15,2013-11-16 03:05:00,
2013-11-15 21:06:00,42.1,34.7,29.98,South,178,5.0,12.0,75,0.00,,,0.00,0,Wunderground v.1.15,2013-11-16 03:06:00,
2013-11-15 21:08:00,42.0,34.6,29.98,South,174,7.0,12.0,75,0.00,,,0.00,0,Wunderground v.1.15,2013-11-16 03:08:00,
2013-11-15 21:09:00,41.9,34.9,29.98,SE,141,8.0,9.0,76,0.00,,,0.00,0,Wunderground v.1.15,2013-11-16 03:09:00,
2013-11-15 21:10:00,41.9,34.9,29.98,SSE,166,6.0,9.0,76,0.00,,,0.00,0,Wunderground v.1.15,2013-11-16 03:10:00,
2013-11-15 21:11:00,41.9,34.9,29.98,South,178,7.0,9.0,76,0.00,,,0.00,0,Wunderground v.1.15,2013-11-16 03:11:00,
2013-11-15 21:14:00,41.7,34.7,29.98,South,169,8.0,9.0,76,0.00,,,0.00,0,Wunderground v.1.15,2013-11-16 03:14:00,
2013-11-15 21:15:00,41.6,34.6,29.98,South,175,7.0,9.0,76,0.00,,,0.00,0,Wunderground v.1.15,2013-11-16 03:15:00,
2013-11-15 21:16:00,41.6,34.6,29.98,South,178,2.0,9.0,76,0.00,,,0.00,0,Wunderground v.1.15,2013-11-16 03:16:00,
2013-11-15 21:17:00,41.6,34.6,29.98,South,179,7.0,9.0,76,0.00,,,0.00,0,Wunderground v.1.15,2013-11-16 03:17:00,
2013-11-15 21:19:00,41.5,34.5,29.98,South,169,5.0,5.0,76,0.00,,,0.00,0,Wunderground v.1.15,2013-11-16 03:19:00,
2013-11-15 21:20:00,41.5,34.5,29.98,South,169,4.0,6.0,76,0.00,,,0.00,0,Wunderground v.1.15,2013-11-16 03:20:00,
2013-11-15 21:21:00,41.4,34.4,29.98,South,174,6.0,9.0,76,0.00,,,0.00,0,Wunderground v.1.15,2013-11-16 03:21:00,
2013-11-15 21:24:00,41.4,34.4,29.98,SSE,165,5.0,9.0,76,0.00,,,0.00,0,Wunderground v.1.15,2013-11-16 03:24:00,
2013-11-15 21:25:00,41.4,34.4,29.98,SSE,165,7.0,10.0,76,0.00,,,0.00,0,Wunderground v.1.15,2013-11-16 03:25:00,
2013-11-15 21:26:00,41.4,34.4,29.98,South,174,8.0,10.0,76,0.00,,,0.00,0,Wunderground v.1.15,2013-11-16 03:26:00,
2013-11-15 21:27:00,41.4,34.4,29.98,South,174,7.0,10.0,76,0.00,,,0.00,0,Wunderground v.1.15,2013-11-16 03:27:00,
2013-11-15 21:29:00,41.4,34.4,29.98,South,171,4.0,10.0,76,0.00,,,0.00,0,Wunderground v.1.15,2013-11-16 03:29:00,
2013-11-15 21:30:00,41.4,34.4,29.98,SSE,167,8.0,10.0,76,0.00,,,0.00,0,Wunderground v.1.15,2013-11-16 03:30:00,
2013-11-15 21:31:00,41.4,34.4,29.98,South,176,6.0,10.0,76,0.00,,,0.00,0,Wunderground v.1.15,2013-11-16 03:31:00,
2013-11-15 21:32:00,41.4,34.4,29.98,South,180,5.0,10.0,76,0.00,,,0.00,0,Wunderground v.1.15,2013-11-16 03:32:00,
2013-11-15 21:34:00,41.4,34.4,29.98,South,177,9.0,11.0,76,0.00,,,0.00,0,Wunderground v.1.15,2013-11-16 03:34:00,
2013-11-15 21:35:00,41.4,34.4,29.98,SSE,150,5.0,11.0,76,0.00,,,0.00,0,Wunderground v.1.15,2013-11-16 03:35:00,
2013-11-15 21:37:00,41.3,34.3,29.98,SE,145,11.0,11.0,76,0.00,,,0.00,0,Wunderground v.1.15,2013-11-16 03:37:00,
2013-11-15 21:40:00,41.3,34.3,29.98,South,169,7.0,7.0,76,0.00,,,0.00,0,Wunderground v.1.15,2013-11-16 03:40:00,
2013-11-15 21:41:00,41.3,34.3,29.98,SSE,159,6.0,10.0,76,0.00,,,0.00,0,Wunderground v.1.15,2013-11-16 03:41:00,
2013-11-15 21:42:00,41.2,34.2,29.98,SSE,157,9.0,10.0,76,0.00,,,0.00,0,Wunderground v.1.15,2013-11-16 03:42:00,
2013-11-15 21:43:00,41.2,34.2,29.98,South,173,6.0,10.0,76,0.00,,,0.00,0,Wunderground v.1.15,2013-11-16 03:43:00,
2013-11-15 21:44:00,41.2,34.5,29.98,South,175,8.0,11.0,77,0.00,,,0.00,0,Wunderground v.1.15,2013-11-16 03:44:00,
2013-11-15 21:45:00,41.1,34.4,29.98,South,176,8.0,11.0,77,0.00,,,0.00,0,Wunderground v.1.15,2013-11-16 03:45:00,
2013-11-15 21:46:00,41.1,34.4,29.98,SSE,161,7.0,11.0,77,0.00,,,0.00,0,Wunderground v.1.15,2013-11-16 03:46:00,
2013-11-15 21:47:00,41.1,34.4,29.98,SSE,161,7.0,11.0,77,0.00,,,0.00,0,Wunderground v.1.15,2013-11-16 03:47:00,
2013-11-15 21:49:00,41.0,34.3,29.98,South,175,5.0,11.0,77,0.00,,,0.00,0,Wunderground v.1.15,2013-11-16 03:49:00,
2013-11-15 21:50:00,41.0,34.3,29.98,South,171,4.0,10.0,77,0.00,,,0.00,0,Wunderground v.1.15,2013-11-16 03:50:00,
2013-11-15 21:51:00,41.0,34.3,29.98,South,172,5.0,10.0,77,0.00,,,0.00,0,Wunderground v.1.15,2013-11-16 03:51:00,
2013-11-15 21:52:00,41.0,35.6,29.98,South,171,6.0,10.0,81,0.00,,,0.00,0,Wunderground v.1.15,2013-11-16 03:52:00,
2013-11-15 21:53:00,41.0,34.3,29.98,South,171,6.0,10.0,77,0.00,,,0.00,0,Wunderground v.1.15,2013-11-16 03:53:00,
2013-11-15 21:54:00,40.9,34.2,29.98,South,179,8.0,10.0,77,0.00,,,0.00,0,Wunderground v.1.15,2013-11-16 03:54:00,
2013-11-15 21:56:00,40.8,34.1,29.98,South,188,4.0,10.0,77,0.00,,,0.00,0,Wunderground v.1.15,2013-11-16 03:56:00,
2013-11-15 21:58:00,40.7,34.4,29.98,SSE,162,6.0,10.0,78,0.00,,,0.00,0,Wunderground v.1.15,2013-11-16 03:58:00,
2013-11-15 21:59:00,40.7,34.4,29.98,SSE,165,5.0,10.0,78,0.00,,,0.00,0,Wunderground v.1.15,2013-11-16 03:59:00,
2013-11-15 22:01:00,40.6,34.3,29.98,South,178,8.0,10.0,78,0.00,,,0.00,0,Wunderground v.1.15,2013-11-16 04:01:00,
2013-11-15 22:03:00,40.5,34.2,29.98,South,177,6.0,10.0,78,0.00,,,0.00,0,Wunderground v.1.15,2013-11-16 04:03:00,
2013-11-15 22:04:00,40.5,34.2,29.98,SSE,163,8.0,12.0,78,0.00,,,0.00,0,Wunderground v.1.15,2013-11-16 04:04:00,
2013-11-15 22:05:00,40.5,34.2,29.98,South,173,5.0,12.0,78,0.00,,,0.00,0,Wunderground v.1.15,2013-11-16 04:05:00,
2013-11-15 22:06:00,40.4,34.1,29.98,South,175,7.0,12.0,78,0.00,,,0.00,0,Wunderground v.1.15,2013-11-16 04:06:00,
2013-11-15 22:07:00,40.4,34.1,29.98,South,186,6.0,12.0,78,0.00,,,0.00,0,Wunderground v.1.15,2013-11-16 04:07:00,
2013-11-15 22:09:00,40.3,34.3,29.98,South,190,5.0,12.0,79,0.00,,,0.00,0,Wunderground v.1.15,2013-11-16 04:09:00,
2013-11-15 22:10:00,40.3,34.3,29.98,South,178,7.0,9.0,79,0.00,,,0.00,0,Wunderground v.1.15,2013-11-16 04:10:00,
2013-11-15 22:11:00,40.2,34.2,29.98,South,173,6.0,9.0,79,0.00,,,0.00,0,Wunderground v.1.15,2013-11-16 04:11:00,
2013-11-15 22:13:00,40.2,34.2,29.98,South,185,8.0,10.0,79,0.00,,,0.00,0,Wunderground v.1.15,2013-11-16 04:13:00,
2013-11-15 22:14:00,40.1,34.1,29.98,South,171,7.0,10.0,79,0.00,,,0.00,0,Wunderground v.1.15,2013-11-16 04:14:00,
2013-11-15 22:15:00,40.1,34.1,29.98,SSE,162,7.0,10.0,79,0.00,,,0.00,0,Wunderground v.1.15,2013-11-16 04:15:00,
2013-11-15 22:16:00,40.1,34.1,29.98,South,173,8.0,10.0,79,0.00,,,0.00,0,Wunderground v.1.15,2013-11-16 04:16:00,
2013-11-15 22:19:00,40.0,34.3,29.98,SSE,163,8.0,10.0,80,0.00,,,0.00,0,Wunderground v.1.15,2013-11-16 04:19:00,
2013-11-15 22:20:00,40.0,34.3,29.98,SSE,157,5.0,9.0,80,0.00,,,0.00,0,Wunderground v.1.15,2013-11-16 04:20:00,
2013-11-15 22:21:00,40.0,34.3,29.98,SSE,158,5.0,9.0,80,0.00,,,0.00,0,Wunderground v.1.15,2013-11-16 04:21:00,
2013-11-15 22:25:00,40.0,34.0,29.98,South,185,6.0,12.0,79,0.00,,,0.00,0,Wunderground v.1.15,2013-11-16 04:25:00,
2013-11-15 22:26:00,40.0,34.0,29.98,South,171,7.0,12.0,79,0.00,,,0.00,0,Wunderground v.1.15,2013-11-16 04:26:00,
2013-11-15 22:30:00,39.9,34.2,29.98,SSE,163,9.0,9.0,80,0.00,,,0.00,0,Wunderground v.1.15,2013-11-16 04:30:00,
2013-11-15 22:31:00,39.8,34.1,29.98,SSE,166,6.0,9.0,80,0.00,,,0.00,0,Wunderground v.1.15,2013-11-16 04:31:00,
2013-11-15 22:35:00,39.8,34.1,29.97,SSE,159,8.0,12.0,80,0.00,,,0.00,0,Wunderground v.1.15,2013-11-16 04:35:00,
2013-11-15 22:36:00,39.8,34.1,29.97,SSE,161,9.0,12.0,80,0.00,,,0.00,0,Wunderground v.1.15,2013-11-16 04:36:00,
2013-11-15 22:37:00,39.7,34.0,29.98,SE,144,8.0,12.0,80,0.00,,,0.00,0,Wunderground v.1.15,2013-11-16 04:37:00,
2013-11-15 22:41:00,39.7,34.0,29.98,SSE,155,10.0,12.0,80,0.00,,,0.00,0,Wunderground v.1.15,2013-11-16 04:41:00,
2013-11-15 22:42:00,39.7,34.0,29.98,South,170,5.0,12.0,80,0.00,,,0.00,0,Wunderground v.1.15,2013-11-16 04:42:00,
2013-11-15 22:43:00,39.7,34.0,29.98,SSE,164,7.0,12.0,80,0.00,,,0.00,0,Wunderground v.1.15,2013-11-16 04:43:00,
2013-11-15 22:46:00,39.6,33.9,29.97,SSE,150,12.0,12.0,80,0.00,,,0.00,0,Wunderground v.1.15,2013-11-16 04:46:00,
2013-11-15 22:47:00,39.6,33.9,29.97,SSE,161,7.0,12.0,80,0.00,,,0.00,0,Wunderground v.1.15,2013-11-16 04:47:00,
2013-11-15 22:48:00,39.6,33.9,29.97,SSE,158,10.0,12.0,80,0.00,,,0.00,0,Wunderground v.1.15,2013-11-16 04:48:00,
2013-11-15 22:51:00,39.5,33.8,29.97,SSE,159,7.0,9.0,80,0.00,,,0.00,0,Wunderground v.1.15,2013-11-16 04:51:00,
2013-11-15 22:52:00,39.4,33.7,29.97,South,175,9.0,12.0,80,0.00,,,0.00,0,Wunderground v.1.15,2013-11-16 04:52:00,
2013-11-15 22:53:00,39.4,34.1,29.97,SSE,164,7.0,12.0,81,0.00,,,0.00,0,Wunderground v.1.15,2013-11-16 04:53:00,
2013-11-15 22:54:00,39.4,34.1,29.97,SSE,161,9.0,12.0,81,0.00,,,0.00,0,Wunderground v.1.15,2013-11-16 04:54:00,
2013-11-15 22:57:00,39.3,34.0,29.97,SSE,157,7.0,12.0,81,0.00,,,0.00,0,Wunderground v.1.15,2013-11-16 04:57:00,
2013-11-15 22:58:00,39.3,34.0,29.97,SSE,158,7.0,12.0,81,0.00,,,0.00,0,Wunderground v.1.15,2013-11-16 04:58:00,
2013-11-15 22:59:00,39.2,33.9,29.97,SSE,166,6.0,12.0,81,0.00,,,0.00,0,Wunderground v.1.15,2013-11-16 04:59:00,
2013-11-15 23:01:00,39.1,33.8,29.97,SSE,151,12.0,12.0,81,0.00,,,0.00,0,Wunderground v.1.15,2013-11-16 05:01:00,
2013-11-15 23:06:00,38.9,33.9,29.97,SSE,165,6.0,12.0,82,0.00,,,0.00,0,Wunderground v.1.15,2013-11-16 05:06:00,
2013-11-15 23:07:00,38.9,33.9,29.97,SSE,165,6.0,12.0,82,0.00,,,0.00,0,Wunderground v.1.15,2013-11-16 05:07:00,
2013-11-15 23:11:00,38.7,34.0,29.97,SSE,165,7.0,11.0,83,0.00,,,0.00,0,Wunderground v.1.15,2013-11-16 05:11:00,
2013-11-15 23:12:00,38.7,34.0,29.97,South,181,7.0,11.0,83,0.00,,,0.00,0,Wunderground v.1.15,2013-11-16 05:12:00,
2013-11-15 23:13:00,38.7,34.0,29.97,South,174,10.0,11.0,83,0.00,,,0.00,0,Wunderground v.1.15,2013-11-16 05:13:00,
2013-11-15 23:16:00,38.7,34.0,29.97,South,175,9.0,11.0,83,0.00,,,0.00,0,Wunderground v.1.15,2013-11-16 05:16:00,
2013-11-15 23:17:00,38.7,34.0,29.97,South,175,8.0,11.0,83,0.00,,,0.00,0,Wunderground v.1.15,2013-11-16 05:17:00,
2013-11-15 23:19:00,38.6,33.9,29.97,South,179,6.0,11.0,83,0.00,,,0.00,0,Wunderground v.1.15,2013-11-16 05:19:00,
2013-11-15 23:21:00,38.6,33.9,29.98,South,180,5.0,10.0,83,0.00,,,0.00,0,Wunderground v.1.15,2013-11-16 05:21:00,
2013-11-15 23:22:00,38.6,33.9,29.98,South,186,7.0,10.0,83,0.00,,,0.00,0,Wunderground v.1.15,2013-11-16 05:22:00,
2013-11-15 23:23:00,38.6,33.9,29.98,South,185,4.0,10.0,83,0.00,,,0.00,0,Wunderground v.1.15,2013-11-16 05:23:00,
2013-11-15 23:25:00,38.6,33.9,29.97,South,178,8.0,10.0,83,0.00,,,0.00,0,Wunderground v.1.15,2013-11-16 05:25:00,
2013-11-15 23:26:00,38.6,33.9,29.97,South,180,8.0,10.0,83,0.00,,,0.00,0,Wunderground v.1.15,2013-11-16 05:26:00,
2013-11-15 23:27:00,38.6,34.2,29.97,South,185,4.0,10.0,84,0.00,,,0.00,0,Wunderground v.1.15,2013-11-16 05:27:00,
2013-11-15 23:28:00,38.6,34.2,29.97,South,180,5.0,10.0,84,0.00,,,0.00,0,Wunderground v.1.15,2013-11-16 05:28:00,
2013-11-15 23:31:00,38.6,33.9,29.98,South,173,8.0,9.0,83,0.00,,,0.00,0,Wunderground v.1.15,2013-11-16 05:31:00,
2013-11-15 23:32:00,38.7,34.0,29.97,SSE,155,6.0,9.0,83,0.00,,,0.00,0,Wunderground v.1.15,2013-11-16 05:32:00,
2013-11-15 23:33:00,38.7,34.0,29.97,SSE,158,6.0,9.0,83,0.00,,,0.00,0,Wunderground v.1.15,2013-11-16 05:33:00,
2013-11-15 23:36:00,38.6,33.9,29.97,SSE,167,5.0,9.0,83,0.00,,,0.00,0,Wunderground v.1.15,2013-11-16 05:36:00,
2013-11-15 23:37:00,38.7,34.0,29.97,SSE,167,6.0,9.0,83,0.00,,,0.00,0,Wunderground v.1.15,2013-11-16 05:37:00,
2013-11-15 23:38:00,38.6,33.9,29.97,South,171,6.0,9.0,83,0.00,,,0.00,0,Wunderground v.1.15,2013-11-16 05:38:00,
2013-11-15 23:39:00,38.6,33.9,29.97,South,169,5.0,9.0,83,0.00,,,0.00,0,Wunderground v.1.15,2013-11-16 05:39:00,
2013-11-15 23:41:00,38.6,33.9,29.97,South,183,7.0,7.0,83,0.00,,,0.00,0,Wunderground v.1.15,2013-11-16 05:41:00,
2013-11-15 23:42:00,38.6,33.9,29.97,South,183,4.0,7.0,83,0.00,,,0.00,0,Wunderground v.1.15,2013-11-16 05:42:00,
2013-11-15 23:43:00,38.5,34.1,29.97,South,178,7.0,8.0,84,0.00,,,0.00,0,Wunderground v.1.15,2013-11-16 05:43:00,
2013-11-15 23:45:00,38.5,34.1,29.97,South,177,6.0,9.0,84,0.00,,,0.00,0,Wunderground v.1.15,2013-11-16 05:45:00,
2013-11-15 23:47:00,38.5,34.1,29.97,South,176,5.0,9.0,84,0.00,,,0.00,0,Wunderground v.1.15,2013-11-16 05:47:00,
2013-11-15 23:49:00,38.4,34.0,29.97,South,169,5.0,9.0,84,0.00,,,0.00,0,Wunderground v.1.15,2013-11-16 05:49:00,
2013-11-15 23:50:00,38.4,34.0,29.97,South,169,5.0,6.0,84,0.00,,,0.00,0,Wunderground v.1.15,2013-11-16 05:50:00,
2013-11-15 23:52:00,38.4,34.0,29.97,South,176,5.0,9.0,84,0.00,,,0.00,0,Wunderground v.1.15,2013-11-16 05:52:00,
2013-11-15 23:53:00,38.4,34.0,29.97,South,175,4.0,9.0,84,0.00,,,0.00,0,Wunderground v.1.15,2013-11-16 05:53:00,
2013-11-15 23:54:00,38.4,34.0,29.97,SSE,161,6.0,10.0,84,0.00,,,0.00,0,Wunderground v.1.15,2013-11-16 05:54:00,
2013-11-15 23:56:00,38.4,34.0,29.97,SSE,163,7.0,10.0,84,0.00,,,0.00,0,Wunderground v.1.15,2013-11-16 05:56:00,
2013-11-15 23:57:00,38.3,33.9,29.97,SSE,163,7.0,10.0,84,0.00,,,0.00,0,Wunderground v.1.15,2013-11-16 05:57:00,
2013-11-15 23:58:00,38.3,33.9,29.97,SSE,163,4.0,10.0,84,0.00,,,0.00,0,Wunderground v.1.15,2013-11-16 05:58:00,